<?xml version="1.0" encoding="UTF-8" standalone="no" ?><gpx xmlns="http://www.topografix.com/GPX/1/1" xmlns:gpxx="http://www.garmin.com/xmlschemas/GpxExtensions/v3" xmlns:wptx1="http://www.garmin.com/xmlschemas/WaypointExtension/v1" xmlns:gpxtpx="http://www.garmin.com/xmlschemas/TrackPointExtension/v1" creator="GuideVTT.com" version="1.1" xmlns:xsi="http://www.w3.org/2001/XMLSchema-instance" xsi:schemaLocation="http://www.topografix.com/GPX/1/1 http://www.topografix.com/GPX/1/1/gpx.xsd http://www.garmin.com/xmlschemas/GpxExtensions/v3 http://www8.garmin.com/xmlschemas/GpxExtensionsv3.xsd http://www.garmin.com/xmlschemas/WaypointExtension/v1 http://www8.garmin.com/xmlschemas/WaypointExtensionv1.xsd http://www.garmin.com/xmlschemas/TrackPointExtension/v1 http://www.garmin.com/xmlschemas/TrackPointExtensionv1.xsd">
<metadata><link href="http://www.garmin.com"><text>Garmin International</text></link><time>2013-06-22T15:13:50Z</time></metadata>
<trk><name>06_11_ne_sujet.gpx</name><extensions><gpxx:TrackExtension><gpxx:DisplayColor>Cyan</gpxx:DisplayColor></gpxx:TrackExtension></extensions><trkseg>
<trkpt lat="46.98970000" lon="6.92798900"><ele></ele><time>2014-6-21T23:18:37Z</time></trkpt>
<trkpt lat="46.98964700" lon="6.92797000"><ele></ele><time>2014-6-21T23:18:40Z</time></trkpt>
<trkpt lat="46.98954400" lon="6.92799500"><ele></ele><time>2014-6-21T23:18:43Z</time></trkpt>
<trkpt lat="46.98951700" lon="6.92803500"><ele></ele><time>2014-6-21T23:18:46Z</time></trkpt>
<trkpt lat="46.98945200" lon="6.92827300"><ele></ele><time>2014-6-21T23:18:49Z</time></trkpt>
<trkpt lat="46.98943300" lon="6.92863900"><ele></ele><time>2014-6-21T23:18:52Z</time></trkpt>
<trkpt lat="46.98944900" lon="6.92902500"><ele></ele><time>2014-6-21T23:18:55Z</time></trkpt>
<trkpt lat="46.98946400" lon="6.92942800"><ele></ele><time>2014-6-21T23:18:58Z</time></trkpt>
<trkpt lat="46.98947500" lon="6.92963400"><ele></ele><time>2014-6-21T23:19:1Z</time></trkpt>
<trkpt lat="46.98949100" lon="6.92970700"><ele></ele><time>2014-6-21T23:19:4Z</time></trkpt>
<trkpt lat="46.98957400" lon="6.92998100"><ele></ele><time>2014-6-21T23:19:7Z</time></trkpt>
<trkpt lat="46.98963900" lon="6.93011400"><ele></ele><time>2014-6-21T23:19:10Z</time></trkpt>
<trkpt lat="46.98991400" lon="6.93073300"><ele></ele><time>2014-6-21T23:19:13Z</time></trkpt>
<trkpt lat="46.99033700" lon="6.93131400"><ele></ele><time>2014-6-21T23:19:16Z</time></trkpt>
<trkpt lat="46.99074900" lon="6.93166300"><ele></ele><time>2014-6-21T23:19:19Z</time></trkpt>
<trkpt lat="46.99099300" lon="6.93185400"><ele></ele><time>2014-6-21T23:19:22Z</time></trkpt>
<trkpt lat="46.99103900" lon="6.93190900"><ele></ele><time>2014-6-21T23:19:25Z</time></trkpt>
<trkpt lat="46.99129500" lon="6.93243900"><ele></ele><time>2014-6-21T23:19:28Z</time></trkpt>
<trkpt lat="46.99163400" lon="6.93314500"><ele></ele><time>2014-6-21T23:19:31Z</time></trkpt>
<trkpt lat="46.99199700" lon="6.93393700"><ele></ele><time>2014-6-21T23:19:34Z</time></trkpt>
<trkpt lat="46.99202700" lon="6.93399900"><ele></ele><time>2014-6-21T23:19:37Z</time></trkpt>
<trkpt lat="46.99213800" lon="6.93416500"><ele></ele><time>2014-6-21T23:19:40Z</time></trkpt>
<trkpt lat="46.99256900" lon="6.93510100"><ele></ele><time>2014-6-21T23:19:43Z</time></trkpt>
<trkpt lat="46.99302300" lon="6.93613800"><ele></ele><time>2014-6-21T23:19:46Z</time></trkpt>
<trkpt lat="46.99317600" lon="6.93657400"><ele></ele><time>2014-6-21T23:19:49Z</time></trkpt>
<trkpt lat="46.99329800" lon="6.93674400"><ele></ele><time>2014-6-21T23:19:52Z</time></trkpt>
<trkpt lat="46.99362600" lon="6.93744800"><ele></ele><time>2014-6-21T23:19:55Z</time></trkpt>
<trkpt lat="46.99407600" lon="6.93848900"><ele></ele><time>2014-6-21T23:19:58Z</time></trkpt>
<trkpt lat="46.99428900" lon="6.93906300"><ele></ele><time>2014-6-21T23:20:1Z</time></trkpt>
<trkpt lat="46.99435800" lon="6.93925800"><ele></ele><time>2014-6-21T23:20:4Z</time></trkpt>
<trkpt lat="46.99442700" lon="6.93945400"><ele></ele><time>2014-6-21T23:20:7Z</time></trkpt>
<trkpt lat="46.99467500" lon="6.93993800"><ele></ele><time>2014-6-21T23:20:10Z</time></trkpt>
<trkpt lat="46.99506000" lon="6.94037400"><ele></ele><time>2014-6-21T23:20:13Z</time></trkpt>
<trkpt lat="46.99539900" lon="6.94074800"><ele></ele><time>2014-6-21T23:20:16Z</time></trkpt>
<trkpt lat="46.99565900" lon="6.94134500"><ele></ele><time>2014-6-21T23:20:19Z</time></trkpt>
<trkpt lat="46.99582700" lon="6.94229200"><ele></ele><time>2014-6-21T23:20:22Z</time></trkpt>
<trkpt lat="46.99601700" lon="6.94306100"><ele></ele><time>2014-6-21T23:20:25Z</time></trkpt>
<trkpt lat="46.99633000" lon="6.94356100"><ele></ele><time>2014-6-21T23:20:28Z</time></trkpt>
<trkpt lat="46.99667000" lon="6.94402600"><ele></ele><time>2014-6-21T23:20:31Z</time></trkpt>
<trkpt lat="46.99682600" lon="6.94425500"><ele></ele><time>2014-6-21T23:20:34Z</time></trkpt>
<trkpt lat="46.99692900" lon="6.94440300"><ele></ele><time>2014-6-21T23:20:37Z</time></trkpt>
<trkpt lat="46.99725300" lon="6.94518400"><ele></ele><time>2014-6-21T23:20:40Z</time></trkpt>
<trkpt lat="46.99737900" lon="6.94574600"><ele></ele><time>2014-6-21T23:20:43Z</time></trkpt>
<trkpt lat="46.99740600" lon="6.94605300"><ele></ele><time>2014-6-21T23:20:46Z</time></trkpt>
<trkpt lat="46.99737200" lon="6.94666300"><ele></ele><time>2014-6-21T23:20:49Z</time></trkpt>
<trkpt lat="46.99729500" lon="6.94730400"><ele></ele><time>2014-6-21T23:20:52Z</time></trkpt>
<trkpt lat="46.99728800" lon="6.94742700"><ele></ele><time>2014-6-21T23:20:55Z</time></trkpt>
<trkpt lat="46.99728800" lon="6.94767300"><ele></ele><time>2014-6-21T23:20:58Z</time></trkpt>
<trkpt lat="46.99727600" lon="6.94785500"><ele></ele><time>2014-6-21T23:21:1Z</time></trkpt>
<trkpt lat="46.99728400" lon="6.94851200"><ele></ele><time>2014-6-21T23:21:4Z</time></trkpt>
<trkpt lat="46.99729900" lon="6.94863500"><ele></ele><time>2014-6-21T23:21:7Z</time></trkpt>
<trkpt lat="46.99733000" lon="6.94961600"><ele></ele><time>2014-6-21T23:21:10Z</time></trkpt>
<trkpt lat="46.99737500" lon="6.95055000"><ele></ele><time>2014-6-21T23:21:13Z</time></trkpt>
<trkpt lat="46.99738300" lon="6.95076400"><ele></ele><time>2014-6-21T23:21:16Z</time></trkpt>
<trkpt lat="46.99754300" lon="6.95163700"><ele></ele><time>2014-6-21T23:21:19Z</time></trkpt>
<trkpt lat="46.99777200" lon="6.95239800"><ele></ele><time>2014-6-21T23:21:22Z</time></trkpt>
<trkpt lat="46.99793600" lon="6.95287900"><ele></ele><time>2014-6-21T23:21:25Z</time></trkpt>
<trkpt lat="46.99828300" lon="6.95358300"><ele></ele><time>2014-6-21T23:21:28Z</time></trkpt>
<trkpt lat="46.99864200" lon="6.95434400"><ele></ele><time>2014-6-21T23:21:31Z</time></trkpt>
<trkpt lat="46.99897400" lon="6.95507000"><ele></ele><time>2014-6-21T23:21:34Z</time></trkpt>
<trkpt lat="46.99934400" lon="6.95558000"><ele></ele><time>2014-6-21T23:21:37Z</time></trkpt>
<trkpt lat="46.99977100" lon="6.95600700"><ele></ele><time>2014-6-21T23:21:40Z</time></trkpt>
<trkpt lat="47.00014500" lon="6.95621000"><ele></ele><time>2014-6-21T23:21:43Z</time></trkpt>
<trkpt lat="47.00065600" lon="6.95638900"><ele></ele><time>2014-6-21T23:21:46Z</time></trkpt>
<trkpt lat="47.00127800" lon="6.95658600"><ele></ele><time>2014-6-21T23:21:49Z</time></trkpt>
<trkpt lat="47.00187700" lon="6.95677500"><ele></ele><time>2014-6-21T23:21:52Z</time></trkpt>
<trkpt lat="47.00233500" lon="6.95692500"><ele></ele><time>2014-6-21T23:21:55Z</time></trkpt>
<trkpt lat="47.00254400" lon="6.95704500"><ele></ele><time>2014-6-21T23:21:58Z</time></trkpt>
<trkpt lat="47.00265100" lon="6.95712800"><ele></ele><time>2014-6-21T23:22:1Z</time></trkpt>
<trkpt lat="47.00304400" lon="6.95763900"><ele></ele><time>2014-6-21T23:22:4Z</time></trkpt>
<trkpt lat="47.00342200" lon="6.95853000"><ele></ele><time>2014-6-21T23:22:7Z</time></trkpt>
<trkpt lat="47.00378000" lon="6.95937500"><ele></ele><time>2014-6-21T23:22:10Z</time></trkpt>
<trkpt lat="47.00428800" lon="6.96051600"><ele></ele><time>2014-6-21T23:22:13Z</time></trkpt>
<trkpt lat="47.00470400" lon="6.96150000"><ele></ele><time>2014-6-21T23:22:16Z</time></trkpt>
<trkpt lat="47.00496300" lon="6.96198400"><ele></ele><time>2014-6-21T23:22:19Z</time></trkpt>
<trkpt lat="47.00506600" lon="6.96220800"><ele></ele><time>2014-6-21T23:22:22Z</time></trkpt>
<trkpt lat="47.00510000" lon="6.96225400"><ele></ele><time>2014-6-21T23:22:25Z</time></trkpt>
<trkpt lat="47.00518000" lon="6.96231200"><ele></ele><time>2014-6-21T23:22:28Z</time></trkpt>
<trkpt lat="47.00543600" lon="6.96234900"><ele></ele><time>2014-6-21T23:22:31Z</time></trkpt>
<trkpt lat="47.00556600" lon="6.96240900"><ele></ele><time>2014-6-21T23:22:34Z</time></trkpt>
<trkpt lat="47.00573000" lon="6.96254800"><ele></ele><time>2014-6-21T23:22:37Z</time></trkpt>
<trkpt lat="47.00594300" lon="6.96286800"><ele></ele><time>2014-6-21T23:22:40Z</time></trkpt>
<trkpt lat="47.00632500" lon="6.96340900"><ele></ele><time>2014-6-21T23:22:43Z</time></trkpt>
<trkpt lat="47.00658000" lon="6.96379200"><ele></ele><time>2014-6-21T23:22:46Z</time></trkpt>
<trkpt lat="47.00683600" lon="6.96417500"><ele></ele><time>2014-6-21T23:22:49Z</time></trkpt>
<trkpt lat="47.00712200" lon="6.96447900"><ele></ele><time>2014-6-21T23:22:52Z</time></trkpt>
<trkpt lat="47.00737800" lon="6.96479000"><ele></ele><time>2014-6-21T23:22:55Z</time></trkpt>
<trkpt lat="47.00745800" lon="6.96491100"><ele></ele><time>2014-6-21T23:22:58Z</time></trkpt>
<trkpt lat="47.00771300" lon="6.96544200"><ele></ele><time>2014-6-21T23:23:1Z</time></trkpt>
<trkpt lat="47.00806000" lon="6.96617300"><ele></ele><time>2014-6-21T23:23:4Z</time></trkpt>
<trkpt lat="47.00826600" lon="6.96680100"><ele></ele><time>2014-6-21T23:23:7Z</time></trkpt>
<trkpt lat="47.00849200" lon="6.96751100"><ele></ele><time>2014-6-21T23:23:10Z</time></trkpt>
<trkpt lat="47.00864000" lon="6.96798200"><ele></ele><time>2014-6-21T23:23:13Z</time></trkpt>
<trkpt lat="47.00895700" lon="6.96888800"><ele></ele><time>2014-6-21T23:23:16Z</time></trkpt>
<trkpt lat="47.00928500" lon="6.96966800"><ele></ele><time>2014-6-21T23:23:19Z</time></trkpt>
<trkpt lat="47.00956300" lon="6.97034000"><ele></ele><time>2014-6-21T23:23:22Z</time></trkpt>
<trkpt lat="47.00973500" lon="6.97074100"><ele></ele><time>2014-6-21T23:23:25Z</time></trkpt>
<trkpt lat="47.01001000" lon="6.97146300"><ele></ele><time>2014-6-21T23:23:28Z</time></trkpt>
<trkpt lat="47.01033000" lon="6.97233100"><ele></ele><time>2014-6-21T23:23:31Z</time></trkpt>
<trkpt lat="47.01062000" lon="6.97289800"><ele></ele><time>2014-6-21T23:23:34Z</time></trkpt>
<trkpt lat="47.01096000" lon="6.97341100"><ele></ele><time>2014-6-21T23:23:37Z</time></trkpt>
<trkpt lat="47.01128800" lon="6.97391400"><ele></ele><time>2014-6-21T23:23:40Z</time></trkpt>
<trkpt lat="47.01148200" lon="6.97421000"><ele></ele><time>2014-6-21T23:23:43Z</time></trkpt>
<trkpt lat="47.01161600" lon="6.97440400"><ele></ele><time>2014-6-21T23:23:46Z</time></trkpt>
<trkpt lat="47.01172300" lon="6.97456500"><ele></ele><time>2014-6-21T23:23:49Z</time></trkpt>
<trkpt lat="47.01189800" lon="6.97485100"><ele></ele><time>2014-6-21T23:23:52Z</time></trkpt>
<trkpt lat="47.01213100" lon="6.97529100"><ele></ele><time>2014-6-21T23:23:55Z</time></trkpt>
<trkpt lat="47.01228000" lon="6.97567000"><ele></ele><time>2014-6-21T23:23:58Z</time></trkpt>
<trkpt lat="47.01246300" lon="6.97622400"><ele></ele><time>2014-6-21T23:24:1Z</time></trkpt>
<trkpt lat="47.01270300" lon="6.97678200"><ele></ele><time>2014-6-21T23:24:4Z</time></trkpt>
<trkpt lat="47.01290500" lon="6.97740900"><ele></ele><time>2014-6-21T23:24:7Z</time></trkpt>
<trkpt lat="47.01297800" lon="6.97754000"><ele></ele><time>2014-6-21T23:24:10Z</time></trkpt>
<trkpt lat="47.01303500" lon="6.97766100"><ele></ele><time>2014-6-21T23:24:13Z</time></trkpt>
<trkpt lat="47.01315300" lon="6.97811400"><ele></ele><time>2014-6-21T23:24:16Z</time></trkpt>
<trkpt lat="47.01341600" lon="6.97889600"><ele></ele><time>2014-6-21T23:24:19Z</time></trkpt>
<trkpt lat="47.01368000" lon="6.97967900"><ele></ele><time>2014-6-21T23:24:22Z</time></trkpt>
<trkpt lat="47.01376300" lon="6.98014500"><ele></ele><time>2014-6-21T23:24:25Z</time></trkpt>
<trkpt lat="47.01388500" lon="6.98088500"><ele></ele><time>2014-6-21T23:24:28Z</time></trkpt>
<trkpt lat="47.01403000" lon="6.98167100"><ele></ele><time>2014-6-21T23:24:31Z</time></trkpt>
<trkpt lat="47.01410300" lon="6.98224000"><ele></ele><time>2014-6-21T23:24:34Z</time></trkpt>
<trkpt lat="47.01432000" lon="6.98287500"><ele></ele><time>2014-6-21T23:24:37Z</time></trkpt>
<trkpt lat="47.01451900" lon="6.98336300"><ele></ele><time>2014-6-21T23:24:40Z</time></trkpt>
<trkpt lat="47.01478200" lon="6.98392200"><ele></ele><time>2014-6-21T23:24:43Z</time></trkpt>
<trkpt lat="47.01502200" lon="6.98445100"><ele></ele><time>2014-6-21T23:24:46Z</time></trkpt>
<trkpt lat="47.01541500" lon="6.98484300"><ele></ele><time>2014-6-21T23:24:49Z</time></trkpt>
<trkpt lat="47.01562900" lon="6.98516700"><ele></ele><time>2014-6-21T23:24:52Z</time></trkpt>
<trkpt lat="47.01589200" lon="6.98563200"><ele></ele><time>2014-6-21T23:24:55Z</time></trkpt>
<trkpt lat="47.01591100" lon="6.98566800"><ele></ele><time>2014-6-21T23:24:58Z</time></trkpt>
<trkpt lat="47.01609800" lon="6.98611100"><ele></ele><time>2014-6-21T23:25:1Z</time></trkpt>
<trkpt lat="47.01622400" lon="6.98648500"><ele></ele><time>2014-6-21T23:25:4Z</time></trkpt>
<trkpt lat="47.01630800" lon="6.98697800"><ele></ele><time>2014-6-21T23:25:7Z</time></trkpt>
<trkpt lat="47.01643400" lon="6.98755400"><ele></ele><time>2014-6-21T23:25:10Z</time></trkpt>
<trkpt lat="47.01656000" lon="6.98797300"><ele></ele><time>2014-6-21T23:25:13Z</time></trkpt>
<trkpt lat="47.01660900" lon="6.98853200"><ele></ele><time>2014-6-21T23:25:16Z</time></trkpt>
<trkpt lat="47.01664000" lon="6.98865300"><ele></ele><time>2014-6-21T23:25:19Z</time></trkpt>
<trkpt lat="47.01668900" lon="6.98875900"><ele></ele><time>2014-6-21T23:25:22Z</time></trkpt>
<trkpt lat="47.01675800" lon="6.98884100"><ele></ele><time>2014-6-21T23:25:25Z</time></trkpt>
<trkpt lat="47.01707500" lon="6.98894200"><ele></ele><time>2014-6-21T23:25:28Z</time></trkpt>
<trkpt lat="47.01739100" lon="6.98896600"><ele></ele><time>2014-6-21T23:25:31Z</time></trkpt>
<trkpt lat="47.01772700" lon="6.98899700"><ele></ele><time>2014-6-21T23:25:34Z</time></trkpt>
<trkpt lat="47.01793700" lon="6.98906900"><ele></ele><time>2014-6-21T23:25:37Z</time></trkpt>
<trkpt lat="47.01819600" lon="6.98918700"><ele></ele><time>2014-6-21T23:25:40Z</time></trkpt>
<trkpt lat="47.01853200" lon="6.98934300"><ele></ele><time>2014-6-21T23:25:43Z</time></trkpt>
<trkpt lat="47.01880300" lon="6.98947700"><ele></ele><time>2014-6-21T23:25:46Z</time></trkpt>
<trkpt lat="47.01904700" lon="6.98960600"><ele></ele><time>2014-6-21T23:25:49Z</time></trkpt>
<trkpt lat="47.01926000" lon="6.98970100"><ele></ele><time>2014-6-21T23:25:52Z</time></trkpt>
<trkpt lat="47.01954700" lon="6.98984000"><ele></ele><time>2014-6-21T23:25:55Z</time></trkpt>
<trkpt lat="47.01981400" lon="6.99002600"><ele></ele><time>2014-6-21T23:25:58Z</time></trkpt>
<trkpt lat="47.02005000" lon="6.99026600"><ele></ele><time>2014-6-21T23:26:1Z</time></trkpt>
<trkpt lat="47.02029400" lon="6.99052700"><ele></ele><time>2014-6-21T23:26:4Z</time></trkpt>
<trkpt lat="47.02059200" lon="6.99082200"><ele></ele><time>2014-6-21T23:26:7Z</time></trkpt>
<trkpt lat="47.02092700" lon="6.99101300"><ele></ele><time>2014-6-21T23:26:10Z</time></trkpt>
<trkpt lat="47.02131300" lon="6.99109700"><ele></ele><time>2014-6-21T23:26:13Z</time></trkpt>
<trkpt lat="47.02160300" lon="6.99122800"><ele></ele><time>2014-6-21T23:26:16Z</time></trkpt>
<trkpt lat="47.02202200" lon="6.99143600"><ele></ele><time>2014-6-21T23:26:19Z</time></trkpt>
<trkpt lat="47.02223800" lon="6.99155400"><ele></ele><time>2014-6-21T23:26:22Z</time></trkpt>
<trkpt lat="47.02245300" lon="6.99167100"><ele></ele><time>2014-6-21T23:26:25Z</time></trkpt>
<trkpt lat="47.02296400" lon="6.99189900"><ele></ele><time>2014-6-21T23:26:28Z</time></trkpt>
<trkpt lat="47.02341100" lon="6.99200300"><ele></ele><time>2014-6-21T23:26:31Z</time></trkpt>
<trkpt lat="47.02388000" lon="6.99206900"><ele></ele><time>2014-6-21T23:26:34Z</time></trkpt>
<trkpt lat="47.02426900" lon="6.99212200"><ele></ele><time>2014-6-21T23:26:37Z</time></trkpt>
<trkpt lat="47.02461600" lon="6.99216600"><ele></ele><time>2014-6-21T23:26:40Z</time></trkpt>
<trkpt lat="47.02489500" lon="6.99220200"><ele></ele><time>2014-6-21T23:26:43Z</time></trkpt>
<trkpt lat="47.02512400" lon="6.99218400"><ele></ele><time>2014-6-21T23:26:46Z</time></trkpt>
<trkpt lat="47.02546700" lon="6.99220400"><ele></ele><time>2014-6-21T23:26:49Z</time></trkpt>
<trkpt lat="47.02568800" lon="6.99233400"><ele></ele><time>2014-6-21T23:26:52Z</time></trkpt>
<trkpt lat="47.02592100" lon="6.99253900"><ele></ele><time>2014-6-21T23:26:55Z</time></trkpt>
<trkpt lat="47.02610800" lon="6.99269000"><ele></ele><time>2014-6-21T23:26:58Z</time></trkpt>
<trkpt lat="47.02633700" lon="6.99287800"><ele></ele><time>2014-6-21T23:27:1Z</time></trkpt>
<trkpt lat="47.02660000" lon="6.99306000"><ele></ele><time>2014-6-21T23:27:4Z</time></trkpt>
<trkpt lat="47.02681700" lon="6.99317000"><ele></ele><time>2014-6-21T23:27:7Z</time></trkpt>
<trkpt lat="47.02705800" lon="6.99326000"><ele></ele><time>2014-6-21T23:27:10Z</time></trkpt>
<trkpt lat="47.02723700" lon="6.99330200"><ele></ele><time>2014-6-21T23:27:13Z</time></trkpt>
<trkpt lat="47.02749300" lon="6.99334100"><ele></ele><time>2014-6-21T23:27:16Z</time></trkpt>
<trkpt lat="47.02769100" lon="6.99335300"><ele></ele><time>2014-6-21T23:27:19Z</time></trkpt>
<trkpt lat="47.02793500" lon="6.99333000"><ele></ele><time>2014-6-21T23:27:22Z</time></trkpt>
<trkpt lat="47.02815600" lon="6.99329400"><ele></ele><time>2014-6-21T23:27:25Z</time></trkpt>
<trkpt lat="47.02837800" lon="6.99324900"><ele></ele><time>2014-6-21T23:27:28Z</time></trkpt>
<trkpt lat="47.02873600" lon="6.99318600"><ele></ele><time>2014-6-21T23:27:31Z</time></trkpt>
<trkpt lat="47.02911800" lon="6.99313600"><ele></ele><time>2014-6-21T23:27:34Z</time></trkpt>
<trkpt lat="47.02949900" lon="6.99308700"><ele></ele><time>2014-6-21T23:27:37Z</time></trkpt>
<trkpt lat="47.02977000" lon="6.99306800"><ele></ele><time>2014-6-21T23:27:40Z</time></trkpt>
<trkpt lat="47.03006700" lon="6.99303600"><ele></ele><time>2014-6-21T23:27:43Z</time></trkpt>
<trkpt lat="47.03040700" lon="6.99301100"><ele></ele><time>2014-6-21T23:27:46Z</time></trkpt>
<trkpt lat="47.03069300" lon="6.99301100"><ele></ele><time>2014-6-21T23:27:49Z</time></trkpt>
<trkpt lat="47.03094900" lon="6.99302500"><ele></ele><time>2014-6-21T23:27:52Z</time></trkpt>
<trkpt lat="47.03124200" lon="6.99310300"><ele></ele><time>2014-6-21T23:27:55Z</time></trkpt>
<trkpt lat="47.03157800" lon="6.99322300"><ele></ele><time>2014-6-21T23:27:58Z</time></trkpt>
<trkpt lat="47.03201700" lon="6.99333900"><ele></ele><time>2014-6-21T23:28:1Z</time></trkpt>
<trkpt lat="47.03233700" lon="6.99341500"><ele></ele><time>2014-6-21T23:28:4Z</time></trkpt>
<trkpt lat="47.03260800" lon="6.99347700"><ele></ele><time>2014-6-21T23:28:7Z</time></trkpt>
<trkpt lat="47.03282200" lon="6.99352900"><ele></ele><time>2014-6-21T23:28:10Z</time></trkpt>
<trkpt lat="47.03312700" lon="6.99358800"><ele></ele><time>2014-6-21T23:28:13Z</time></trkpt>
<trkpt lat="47.03336000" lon="6.99365300"><ele></ele><time>2014-6-21T23:28:16Z</time></trkpt>
<trkpt lat="47.03361900" lon="6.99375800"><ele></ele><time>2014-6-21T23:28:19Z</time></trkpt>
<trkpt lat="47.03407300" lon="6.99396600"><ele></ele><time>2014-6-21T23:28:22Z</time></trkpt>
<trkpt lat="47.03460700" lon="6.99420400"><ele></ele><time>2014-6-21T23:28:25Z</time></trkpt>
<trkpt lat="47.03497700" lon="6.99436400"><ele></ele><time>2014-6-21T23:28:28Z</time></trkpt>
<trkpt lat="47.03538500" lon="6.99454900"><ele></ele><time>2014-6-21T23:28:31Z</time></trkpt>
<trkpt lat="47.03580900" lon="6.99474300"><ele></ele><time>2014-6-21T23:28:34Z</time></trkpt>
<trkpt lat="47.03614000" lon="6.99492200"><ele></ele><time>2014-6-21T23:28:37Z</time></trkpt>
<trkpt lat="47.03646100" lon="6.99513400"><ele></ele><time>2014-6-21T23:28:40Z</time></trkpt>
<trkpt lat="47.03683100" lon="6.99543600"><ele></ele><time>2014-6-21T23:28:43Z</time></trkpt>
<trkpt lat="47.03712500" lon="6.99572800"><ele></ele><time>2014-6-21T23:28:46Z</time></trkpt>
<trkpt lat="47.03746400" lon="6.99606400"><ele></ele><time>2014-6-21T23:28:49Z</time></trkpt>
<trkpt lat="47.03773100" lon="6.99629200"><ele></ele><time>2014-6-21T23:28:52Z</time></trkpt>
<trkpt lat="47.03811300" lon="6.99667700"><ele></ele><time>2014-6-21T23:28:55Z</time></trkpt>
<trkpt lat="47.03841800" lon="6.99698400"><ele></ele><time>2014-6-21T23:28:58Z</time></trkpt>
<trkpt lat="47.03862000" lon="6.99718800"><ele></ele><time>2014-6-21T23:29:1Z</time></trkpt>
<trkpt lat="47.03887900" lon="6.99744400"><ele></ele><time>2014-6-21T23:29:4Z</time></trkpt>
<trkpt lat="47.03900900" lon="6.99757300"><ele></ele><time>2014-6-21T23:29:7Z</time></trkpt>
<trkpt lat="47.03917700" lon="6.99774500"><ele></ele><time>2014-6-21T23:29:10Z</time></trkpt>
<trkpt lat="47.03939800" lon="6.99799000"><ele></ele><time>2014-6-21T23:29:13Z</time></trkpt>
<trkpt lat="47.03960000" lon="6.99823800"><ele></ele><time>2014-6-21T23:29:16Z</time></trkpt>
<trkpt lat="47.03981800" lon="6.99850400"><ele></ele><time>2014-6-21T23:29:19Z</time></trkpt>
<trkpt lat="47.04008100" lon="6.99884500"><ele></ele><time>2014-6-21T23:29:22Z</time></trkpt>
<trkpt lat="47.04032100" lon="6.99918900"><ele></ele><time>2014-6-21T23:29:25Z</time></trkpt>
<trkpt lat="47.04052400" lon="6.99966200"><ele></ele><time>2014-6-21T23:29:28Z</time></trkpt>
<trkpt lat="47.04079800" lon="7.00017200"><ele></ele><time>2014-6-21T23:29:31Z</time></trkpt>
<trkpt lat="47.04111500" lon="7.00074900"><ele></ele><time>2014-6-21T23:29:34Z</time></trkpt>
<trkpt lat="47.04139300" lon="7.00127700"><ele></ele><time>2014-6-21T23:29:37Z</time></trkpt>
<trkpt lat="47.04164900" lon="7.00175500"><ele></ele><time>2014-6-21T23:29:40Z</time></trkpt>
<trkpt lat="47.04200400" lon="7.00235800"><ele></ele><time>2014-6-21T23:29:43Z</time></trkpt>
<trkpt lat="47.04246900" lon="7.00297200"><ele></ele><time>2014-6-21T23:29:46Z</time></trkpt>
<trkpt lat="47.04294600" lon="7.00346200"><ele></ele><time>2014-6-21T23:29:49Z</time></trkpt>
<trkpt lat="47.04354900" lon="7.00389500"><ele></ele><time>2014-6-21T23:29:52Z</time></trkpt>
<trkpt lat="47.04388800" lon="7.00415200"><ele></ele><time>2014-6-21T23:29:55Z</time></trkpt>
<trkpt lat="47.04428100" lon="7.00458700"><ele></ele><time>2014-6-21T23:29:58Z</time></trkpt>
<trkpt lat="47.04454000" lon="7.00497700"><ele></ele><time>2014-6-21T23:30:1Z</time></trkpt>
<trkpt lat="47.04474600" lon="7.00536300"><ele></ele><time>2014-6-21T23:30:4Z</time></trkpt>
<trkpt lat="47.04491800" lon="7.00570700"><ele></ele><time>2014-6-21T23:30:7Z</time></trkpt>
<trkpt lat="47.04511300" lon="7.00611100"><ele></ele><time>2014-6-21T23:30:10Z</time></trkpt>
<trkpt lat="47.04522700" lon="7.00645600"><ele></ele><time>2014-6-21T23:30:13Z</time></trkpt>
<trkpt lat="47.04532600" lon="7.00680500"><ele></ele><time>2014-6-21T23:30:16Z</time></trkpt>
<trkpt lat="47.04542200" lon="7.00712400"><ele></ele><time>2014-6-21T23:30:19Z</time></trkpt>
<trkpt lat="47.04553600" lon="7.00745400"><ele></ele><time>2014-6-21T23:30:22Z</time></trkpt>
<trkpt lat="47.04565800" lon="7.00778100"><ele></ele><time>2014-6-21T23:30:25Z</time></trkpt>
<trkpt lat="47.04579200" lon="7.00812200"><ele></ele><time>2014-6-21T23:30:28Z</time></trkpt>
<trkpt lat="47.04593700" lon="7.00848000"><ele></ele><time>2014-6-21T23:30:31Z</time></trkpt>
<trkpt lat="47.04606600" lon="7.00885500"><ele></ele><time>2014-6-21T23:30:34Z</time></trkpt>
<trkpt lat="47.04616900" lon="7.00921400"><ele></ele><time>2014-6-21T23:30:37Z</time></trkpt>
<trkpt lat="47.04629500" lon="7.00964500"><ele></ele><time>2014-6-21T23:30:40Z</time></trkpt>
<trkpt lat="47.04641700" lon="7.01008700"><ele></ele><time>2014-6-21T23:30:43Z</time></trkpt>
<trkpt lat="47.04658900" lon="7.01060800"><ele></ele><time>2014-6-21T23:30:46Z</time></trkpt>
<trkpt lat="47.04680600" lon="7.01139600"><ele></ele><time>2014-6-21T23:30:49Z</time></trkpt>
<trkpt lat="47.04713800" lon="7.01242200"><ele></ele><time>2014-6-21T23:30:52Z</time></trkpt>
<trkpt lat="47.04740500" lon="7.01306700"><ele></ele><time>2014-6-21T23:30:55Z</time></trkpt>
<trkpt lat="47.04756900" lon="7.01339500"><ele></ele><time>2014-6-21T23:30:58Z</time></trkpt>
<trkpt lat="47.04781700" lon="7.01392300"><ele></ele><time>2014-6-21T23:31:1Z</time></trkpt>
<trkpt lat="47.04820300" lon="7.01460300"><ele></ele><time>2014-6-21T23:31:4Z</time></trkpt>
<trkpt lat="47.04883600" lon="7.01544100"><ele></ele><time>2014-6-21T23:31:7Z</time></trkpt>
<trkpt lat="47.04935500" lon="7.01620700"><ele></ele><time>2014-6-21T23:31:10Z</time></trkpt>
<trkpt lat="47.04965200" lon="7.01673100"><ele></ele><time>2014-6-21T23:31:13Z</time></trkpt>
<trkpt lat="47.05007600" lon="7.01755200"><ele></ele><time>2014-6-21T23:31:16Z</time></trkpt>
<trkpt lat="47.05028900" lon="7.01810700"><ele></ele><time>2014-6-21T23:31:19Z</time></trkpt>
<trkpt lat="47.05035000" lon="7.01907300"><ele></ele><time>2014-6-21T23:31:22Z</time></trkpt>
<trkpt lat="47.05036900" lon="7.01956000"><ele></ele><time>2014-6-21T23:31:25Z</time></trkpt>
<trkpt lat="47.05043800" lon="7.01969000"><ele></ele><time>2014-6-21T23:31:28Z</time></trkpt>
<trkpt lat="47.05049500" lon="7.01980800"><ele></ele><time>2014-6-21T23:31:31Z</time></trkpt>
<trkpt lat="47.05088400" lon="7.02037300"><ele></ele><time>2014-6-21T23:31:34Z</time></trkpt>
<trkpt lat="47.05137600" lon="7.02114200"><ele></ele><time>2014-6-21T23:31:37Z</time></trkpt>
<trkpt lat="47.05189100" lon="7.02193900"><ele></ele><time>2014-6-21T23:31:40Z</time></trkpt>
<trkpt lat="47.05236400" lon="7.02257800"><ele></ele><time>2014-6-21T23:31:43Z</time></trkpt>
<trkpt lat="47.05270800" lon="7.02289500"><ele></ele><time>2014-6-21T23:31:46Z</time></trkpt>
<trkpt lat="47.05321900" lon="7.02339600"><ele></ele><time>2014-6-21T23:31:49Z</time></trkpt>
<trkpt lat="47.05353500" lon="7.02376300"><ele></ele><time>2014-6-21T23:31:52Z</time></trkpt>
<trkpt lat="47.05392500" lon="7.02410600"><ele></ele><time>2014-6-21T23:31:55Z</time></trkpt>
<trkpt lat="47.05434400" lon="7.02452900"><ele></ele><time>2014-6-21T23:31:58Z</time></trkpt>
<trkpt lat="47.05470300" lon="7.02501200"><ele></ele><time>2014-6-21T23:32:1Z</time></trkpt>
<trkpt lat="47.05518000" lon="7.02570200"><ele></ele><time>2014-6-21T23:32:4Z</time></trkpt>
<trkpt lat="47.05580500" lon="7.02642300"><ele></ele><time>2014-6-21T23:32:7Z</time></trkpt>
<trkpt lat="47.05651100" lon="7.02704900"><ele></ele><time>2014-6-21T23:32:10Z</time></trkpt>
<trkpt lat="47.05706400" lon="7.02738800"><ele></ele><time>2014-6-21T23:32:13Z</time></trkpt>
<trkpt lat="47.05732000" lon="7.02734900"><ele></ele><time>2014-6-21T23:32:16Z</time></trkpt>
<trkpt lat="47.05767300" lon="7.02711400"><ele></ele><time>2014-6-21T23:32:19Z</time></trkpt>
<trkpt lat="47.05802500" lon="7.02687900"><ele></ele><time>2014-6-21T23:32:22Z</time></trkpt>
<trkpt lat="47.05813200" lon="7.02686400"><ele></ele><time>2014-6-21T23:32:25Z</time></trkpt>
<trkpt lat="47.05817000" lon="7.02697500"><ele></ele><time>2014-6-21T23:32:28Z</time></trkpt>
<trkpt lat="47.05807900" lon="7.02724800"><ele></ele><time>2014-6-21T23:32:31Z</time></trkpt>
<trkpt lat="47.05779600" lon="7.02773200"><ele></ele><time>2014-6-21T23:32:34Z</time></trkpt>
<trkpt lat="47.05778900" lon="7.02814700"><ele></ele><time>2014-6-21T23:32:37Z</time></trkpt>
<trkpt lat="47.05779600" lon="7.02820400"><ele></ele><time>2014-6-21T23:32:40Z</time></trkpt>
<trkpt lat="47.05801000" lon="7.02839100"><ele></ele><time>2014-6-21T23:32:43Z</time></trkpt>
<trkpt lat="47.05848300" lon="7.02848300"><ele></ele><time>2014-6-21T23:32:46Z</time></trkpt>
<trkpt lat="47.05868500" lon="7.02871900"><ele></ele><time>2014-6-21T23:32:49Z</time></trkpt>
<trkpt lat="47.05878800" lon="7.02896600"><ele></ele><time>2014-6-21T23:32:52Z</time></trkpt>
<trkpt lat="47.05902900" lon="7.02944500"><ele></ele><time>2014-6-21T23:32:55Z</time></trkpt>
<trkpt lat="47.05924200" lon="7.02964100"><ele></ele><time>2014-6-21T23:32:58Z</time></trkpt>
<trkpt lat="47.05959700" lon="7.02999100"><ele></ele><time>2014-6-21T23:33:1Z</time></trkpt>
<trkpt lat="47.05985600" lon="7.03039500"><ele></ele><time>2014-6-21T23:33:4Z</time></trkpt>
<trkpt lat="47.06008900" lon="7.03064500"><ele></ele><time>2014-6-21T23:33:7Z</time></trkpt>
<trkpt lat="47.06037500" lon="7.03101300"><ele></ele><time>2014-6-21T23:33:10Z</time></trkpt>
<trkpt lat="47.06058500" lon="7.03130700"><ele></ele><time>2014-6-21T23:33:13Z</time></trkpt>
<trkpt lat="47.06084400" lon="7.03159100"><ele></ele><time>2014-6-21T23:33:16Z</time></trkpt>
<trkpt lat="47.06124500" lon="7.03196600"><ele></ele><time>2014-6-21T23:33:19Z</time></trkpt>
<trkpt lat="47.06161900" lon="7.03232000"><ele></ele><time>2014-6-21T23:33:22Z</time></trkpt>
<trkpt lat="47.06214500" lon="7.03291800"><ele></ele><time>2014-6-21T23:33:25Z</time></trkpt>
<trkpt lat="47.06257600" lon="7.03356900"><ele></ele><time>2014-6-21T23:33:28Z</time></trkpt>
<trkpt lat="47.06311800" lon="7.03427600"><ele></ele><time>2014-6-21T23:33:31Z</time></trkpt>
<trkpt lat="47.06367100" lon="7.03476000"><ele></ele><time>2014-6-21T23:33:34Z</time></trkpt>
<trkpt lat="47.06411400" lon="7.03511900"><ele></ele><time>2014-6-21T23:33:37Z</time></trkpt>
<trkpt lat="47.06462100" lon="7.03559600"><ele></ele><time>2014-6-21T23:33:40Z</time></trkpt>
<trkpt lat="47.06512800" lon="7.03607400"><ele></ele><time>2014-6-21T23:33:43Z</time></trkpt>
<trkpt lat="47.06538800" lon="7.03658600"><ele></ele><time>2014-6-21T23:33:46Z</time></trkpt>
<trkpt lat="47.06544500" lon="7.03704500"><ele></ele><time>2014-6-21T23:33:49Z</time></trkpt>
<trkpt lat="47.06551400" lon="7.03786200"><ele></ele><time>2014-6-21T23:33:52Z</time></trkpt>
<trkpt lat="47.06566200" lon="7.03837500"><ele></ele><time>2014-6-21T23:33:55Z</time></trkpt>
<trkpt lat="47.06589100" lon="7.03876500"><ele></ele><time>2014-6-21T23:33:58Z</time></trkpt>
<trkpt lat="47.06623800" lon="7.03929600"><ele></ele><time>2014-6-21T23:34:1Z</time></trkpt>
<trkpt lat="47.06629600" lon="7.03938300"><ele></ele><time>2014-6-21T23:34:4Z</time></trkpt>
<trkpt lat="47.06638300" lon="7.03965500"><ele></ele><time>2014-6-21T23:34:7Z</time></trkpt>
<trkpt lat="47.06657400" lon="7.04058000"><ele></ele><time>2014-6-21T23:34:10Z</time></trkpt>
<trkpt lat="47.06668900" lon="7.04090300"><ele></ele><time>2014-6-21T23:34:13Z</time></trkpt>
<trkpt lat="47.06725300" lon="7.04181100"><ele></ele><time>2014-6-21T23:34:16Z</time></trkpt>
<trkpt lat="47.06775700" lon="7.04265400"><ele></ele><time>2014-6-21T23:34:19Z</time></trkpt>
<trkpt lat="47.06821800" lon="7.04315500"><ele></ele><time>2014-6-21T23:34:22Z</time></trkpt>
<trkpt lat="47.06866100" lon="7.04357000"><ele></ele><time>2014-6-21T23:34:25Z</time></trkpt>
<trkpt lat="47.06896200" lon="7.04398800"><ele></ele><time>2014-6-21T23:34:28Z</time></trkpt>
<trkpt lat="47.06953000" lon="7.04483100"><ele></ele><time>2014-6-21T23:34:31Z</time></trkpt>
<trkpt lat="47.06995800" lon="7.04561200"><ele></ele><time>2014-6-21T23:34:34Z</time></trkpt>
<trkpt lat="47.07038500" lon="7.04639400"><ele></ele><time>2014-6-21T23:34:37Z</time></trkpt>
<trkpt lat="47.07061400" lon="7.04736700"><ele></ele><time>2014-6-21T23:34:40Z</time></trkpt>
<trkpt lat="47.07095700" lon="7.04817700"><ele></ele><time>2014-6-21T23:34:43Z</time></trkpt>
<trkpt lat="47.07128100" lon="7.04890400"><ele></ele><time>2014-6-21T23:34:46Z</time></trkpt>
<trkpt lat="47.07170100" lon="7.04985000"><ele></ele><time>2014-6-21T23:34:49Z</time></trkpt>
<trkpt lat="47.07204800" lon="7.05058800"><ele></ele><time>2014-6-21T23:34:52Z</time></trkpt>
<trkpt lat="47.07237600" lon="7.05132700"><ele></ele><time>2014-6-21T23:34:55Z</time></trkpt>
<trkpt lat="47.07266600" lon="7.05197000"><ele></ele><time>2014-6-21T23:34:58Z</time></trkpt>
<trkpt lat="47.07292900" lon="7.05255300"><ele></ele><time>2014-6-21T23:35:1Z</time></trkpt>
<trkpt lat="47.07320000" lon="7.05314000"><ele></ele><time>2014-6-21T23:35:4Z</time></trkpt>
<trkpt lat="47.07358900" lon="7.05388700"><ele></ele><time>2014-6-21T23:35:7Z</time></trkpt>
<trkpt lat="47.07386000" lon="7.05445100"><ele></ele><time>2014-6-21T23:35:10Z</time></trkpt>
<trkpt lat="47.07420000" lon="7.05520400"><ele></ele><time>2014-6-21T23:35:13Z</time></trkpt>
<trkpt lat="47.07441300" lon="7.05569100"><ele></ele><time>2014-6-21T23:35:16Z</time></trkpt>
<trkpt lat="47.07465700" lon="7.05622400"><ele></ele><time>2014-6-21T23:35:19Z</time></trkpt>
<trkpt lat="47.07469200" lon="7.05630000"><ele></ele><time>2014-6-21T23:35:22Z</time></trkpt>
<trkpt lat="47.07472600" lon="7.05637400"><ele></ele><time>2014-6-21T23:35:25Z</time></trkpt>
<trkpt lat="47.07482500" lon="7.05659700"><ele></ele><time>2014-6-21T23:35:28Z</time></trkpt>
<trkpt lat="47.07484100" lon="7.05676800"><ele></ele><time>2014-6-21T23:35:31Z</time></trkpt>
<trkpt lat="47.07477600" lon="7.05701300"><ele></ele><time>2014-6-21T23:35:34Z</time></trkpt>
<trkpt lat="47.07476000" lon="7.05705000"><ele></ele><time>2014-6-21T23:35:37Z</time></trkpt>
<trkpt lat="47.07480800" lon="7.05718700"><ele></ele><time>2014-6-21T23:35:40Z</time></trkpt>
<trkpt lat="47.07485600" lon="7.05732300"><ele></ele><time>2014-6-21T23:35:43Z</time></trkpt>
<trkpt lat="47.07510400" lon="7.05768600"><ele></ele><time>2014-6-21T23:35:46Z</time></trkpt>
<trkpt lat="47.07540100" lon="7.05816300"><ele></ele><time>2014-6-21T23:35:49Z</time></trkpt>
<trkpt lat="47.07568400" lon="7.05866000"><ele></ele><time>2014-6-21T23:35:52Z</time></trkpt>
<trkpt lat="47.07592400" lon="7.05910300"><ele></ele><time>2014-6-21T23:35:55Z</time></trkpt>
<trkpt lat="47.07614500" lon="7.05950800"><ele></ele><time>2014-6-21T23:35:58Z</time></trkpt>
<trkpt lat="47.07638200" lon="7.05993200"><ele></ele><time>2014-6-21T23:36:1Z</time></trkpt>
<trkpt lat="47.07667500" lon="7.06045900"><ele></ele><time>2014-6-21T23:36:4Z</time></trkpt>
<trkpt lat="47.07692000" lon="7.06090900"><ele></ele><time>2014-6-21T23:36:7Z</time></trkpt>
<trkpt lat="47.07713300" lon="7.06129900"><ele></ele><time>2014-6-21T23:36:10Z</time></trkpt>
<trkpt lat="47.07732400" lon="7.06149100"><ele></ele><time>2014-6-21T23:36:13Z</time></trkpt>
<trkpt lat="47.07749200" lon="7.06138000"><ele></ele><time>2014-6-21T23:36:16Z</time></trkpt>
<trkpt lat="47.07776300" lon="7.06126000"><ele></ele><time>2014-6-21T23:36:19Z</time></trkpt>
<trkpt lat="47.07796900" lon="7.06140000"><ele></ele><time>2014-6-21T23:36:22Z</time></trkpt>
<trkpt lat="47.07814000" lon="7.06170900"><ele></ele><time>2014-6-21T23:36:25Z</time></trkpt>
<trkpt lat="47.07832700" lon="7.06206600"><ele></ele><time>2014-6-21T23:36:28Z</time></trkpt>
<trkpt lat="47.07854500" lon="7.06248100"><ele></ele><time>2014-6-21T23:36:31Z</time></trkpt>
<trkpt lat="47.07872800" lon="7.06285000"><ele></ele><time>2014-6-21T23:36:34Z</time></trkpt>
<trkpt lat="47.07896800" lon="7.06327700"><ele></ele><time>2014-6-21T23:36:37Z</time></trkpt>
<trkpt lat="47.07926900" lon="7.06375600"><ele></ele><time>2014-6-21T23:36:40Z</time></trkpt>
<trkpt lat="47.07961300" lon="7.06434800"><ele></ele><time>2014-6-21T23:36:43Z</time></trkpt>
<trkpt lat="47.07988000" lon="7.06479700"><ele></ele><time>2014-6-21T23:36:46Z</time></trkpt>
<trkpt lat="47.08028000" lon="7.06537500"><ele></ele><time>2014-6-21T23:36:49Z</time></trkpt>
<trkpt lat="47.08063100" lon="7.06583200"><ele></ele><time>2014-6-21T23:36:52Z</time></trkpt>
<trkpt lat="47.08069600" lon="7.06589700"><ele></ele><time>2014-6-21T23:36:55Z</time></trkpt>
<trkpt lat="47.08073400" lon="7.06592400"><ele></ele><time>2014-6-21T23:36:58Z</time></trkpt>
<trkpt lat="47.08081100" lon="7.06596300"><ele></ele><time>2014-6-21T23:37:1Z</time></trkpt>
<trkpt lat="47.08113900" lon="7.06596600"><ele></ele><time>2014-6-21T23:37:4Z</time></trkpt>
<trkpt lat="47.08148600" lon="7.06608900"><ele></ele><time>2014-6-21T23:37:7Z</time></trkpt>
<trkpt lat="47.08168800" lon="7.06621900"><ele></ele><time>2014-6-21T23:37:10Z</time></trkpt>
<trkpt lat="47.08178700" lon="7.06624300"><ele></ele><time>2014-6-21T23:37:13Z</time></trkpt>
<trkpt lat="47.08198500" lon="7.06618500"><ele></ele><time>2014-6-21T23:37:16Z</time></trkpt>
<trkpt lat="47.08212700" lon="7.06608000"><ele></ele><time>2014-6-21T23:37:19Z</time></trkpt>
<trkpt lat="47.08231000" lon="7.06585100"><ele></ele><time>2014-6-21T23:37:22Z</time></trkpt>
<trkpt lat="47.08239400" lon="7.06574300"><ele></ele><time>2014-6-21T23:37:25Z</time></trkpt>
<trkpt lat="47.08247800" lon="7.06563600"><ele></ele><time>2014-6-21T23:37:28Z</time></trkpt>
<trkpt lat="47.08256100" lon="7.06552800"><ele></ele><time>2014-6-21T23:37:31Z</time></trkpt>
<trkpt lat="47.08256500" lon="7.06551800"><ele></ele><time>2014-6-21T23:37:34Z</time></trkpt>
<trkpt lat="47.08261100" lon="7.06535900"><ele></ele><time>2014-6-21T23:37:37Z</time></trkpt>
<trkpt lat="47.08269500" lon="7.06521800"><ele></ele><time>2014-6-21T23:37:40Z</time></trkpt>
<trkpt lat="47.08278700" lon="7.06507300"><ele></ele><time>2014-6-21T23:37:43Z</time></trkpt>
<trkpt lat="47.08295800" lon="7.06473000"><ele></ele><time>2014-6-21T23:37:46Z</time></trkpt>
<trkpt lat="47.08302300" lon="7.06446600"><ele></ele><time>2014-6-21T23:37:49Z</time></trkpt>
<trkpt lat="47.08314900" lon="7.06426200"><ele></ele><time>2014-6-21T23:37:52Z</time></trkpt>
<trkpt lat="47.08320200" lon="7.06418900"><ele></ele><time>2014-6-21T23:37:55Z</time></trkpt>
<trkpt lat="47.08351900" lon="7.06388600"><ele></ele><time>2014-6-21T23:37:58Z</time></trkpt>
<trkpt lat="47.08399600" lon="7.06345800"><ele></ele><time>2014-6-21T23:38:1Z</time></trkpt>
<trkpt lat="47.08437000" lon="7.06307900"><ele></ele><time>2014-6-21T23:38:4Z</time></trkpt>
<trkpt lat="47.08484300" lon="7.06251600"><ele></ele><time>2014-6-21T23:38:7Z</time></trkpt>
<trkpt lat="47.08499100" lon="7.06237600"><ele></ele><time>2014-6-21T23:38:10Z</time></trkpt>
<trkpt lat="47.08540300" lon="7.06217800"><ele></ele><time>2014-6-21T23:38:13Z</time></trkpt>
<trkpt lat="47.08587300" lon="7.06200900"><ele></ele><time>2014-6-21T23:38:16Z</time></trkpt>
<trkpt lat="47.08604400" lon="7.06193100"><ele></ele><time>2014-6-21T23:38:19Z</time></trkpt>
<trkpt lat="47.08636100" lon="7.06187600"><ele></ele><time>2014-6-21T23:38:22Z</time></trkpt>
<trkpt lat="47.08651000" lon="7.06191300"><ele></ele><time>2014-6-21T23:38:25Z</time></trkpt>
<trkpt lat="47.08690600" lon="7.06207200"><ele></ele><time>2014-6-21T23:38:28Z</time></trkpt>
<trkpt lat="47.08733000" lon="7.06213700"><ele></ele><time>2014-6-21T23:38:31Z</time></trkpt>
<trkpt lat="47.08787200" lon="7.06210400"><ele></ele><time>2014-6-21T23:38:34Z</time></trkpt>
<trkpt lat="47.08836700" lon="7.06195900"><ele></ele><time>2014-6-21T23:38:37Z</time></trkpt>
<trkpt lat="47.08876800" lon="7.06178200"><ele></ele><time>2014-6-21T23:38:40Z</time></trkpt>
<trkpt lat="47.08910400" lon="7.06163300"><ele></ele><time>2014-6-21T23:38:43Z</time></trkpt>
<trkpt lat="47.08945100" lon="7.06140900"><ele></ele><time>2014-6-21T23:38:46Z</time></trkpt>
<trkpt lat="47.08983200" lon="7.06105100"><ele></ele><time>2014-6-21T23:38:49Z</time></trkpt>
<trkpt lat="47.08988200" lon="7.06101100"><ele></ele><time>2014-6-21T23:38:52Z</time></trkpt>
<trkpt lat="47.08993100" lon="7.06097800"><ele></ele><time>2014-6-21T23:38:55Z</time></trkpt>
<trkpt lat="47.09003800" lon="7.06093700"><ele></ele><time>2014-6-21T23:38:58Z</time></trkpt>
<trkpt lat="47.09029400" lon="7.06096700"><ele></ele><time>2014-6-21T23:39:1Z</time></trkpt>
<trkpt lat="47.09034000" lon="7.06099100"><ele></ele><time>2014-6-21T23:39:4Z</time></trkpt>
<trkpt lat="47.09058400" lon="7.06120100"><ele></ele><time>2014-6-21T23:39:7Z</time></trkpt>
<trkpt lat="47.09062600" lon="7.06131600"><ele></ele><time>2014-6-21T23:39:10Z</time></trkpt>
<trkpt lat="47.09071200" lon="7.06195200"><ele></ele><time>2014-6-21T23:39:13Z</time></trkpt>
<trkpt lat="47.09079700" lon="7.06258800"><ele></ele><time>2014-6-21T23:39:16Z</time></trkpt>
<trkpt lat="47.09085100" lon="7.06303100"><ele></ele><time>2014-6-21T23:39:19Z</time></trkpt>
<trkpt lat="47.09093900" lon="7.06370900"><ele></ele><time>2014-6-21T23:39:22Z</time></trkpt>
<trkpt lat="47.09104500" lon="7.06451400"><ele></ele><time>2014-6-21T23:39:25Z</time></trkpt>
<trkpt lat="47.09106400" lon="7.06469300"><ele></ele><time>2014-6-21T23:39:28Z</time></trkpt>
<trkpt lat="47.09113700" lon="7.06480700"><ele></ele><time>2014-6-21T23:39:31Z</time></trkpt>
<trkpt lat="47.09122800" lon="7.06483100"><ele></ele><time>2014-6-21T23:39:34Z</time></trkpt>
<trkpt lat="47.09150700" lon="7.06469900"><ele></ele><time>2014-6-21T23:39:37Z</time></trkpt>
<trkpt lat="47.09155300" lon="7.06467600"><ele></ele><time>2014-6-21T23:39:40Z</time></trkpt>
<trkpt lat="47.09167900" lon="7.06460700"><ele></ele><time>2014-6-21T23:39:43Z</time></trkpt>
<trkpt lat="47.09191900" lon="7.06447600"><ele></ele><time>2014-6-21T23:39:46Z</time></trkpt>
<trkpt lat="47.09221300" lon="7.06431200"><ele></ele><time>2014-6-21T23:39:49Z</time></trkpt>
<trkpt lat="47.09270100" lon="7.06404400"><ele></ele><time>2014-6-21T23:39:52Z</time></trkpt>
<trkpt lat="47.09323900" lon="7.06374500"><ele></ele><time>2014-6-21T23:39:55Z</time></trkpt>
<trkpt lat="47.09360100" lon="7.06354500"><ele></ele><time>2014-6-21T23:39:58Z</time></trkpt>
<trkpt lat="47.09414300" lon="7.06325200"><ele></ele><time>2014-6-21T23:40:1Z</time></trkpt>
<trkpt lat="47.09492500" lon="7.06281400"><ele></ele><time>2014-6-21T23:40:4Z</time></trkpt>
<trkpt lat="47.09520000" lon="7.06266500"><ele></ele><time>2014-6-21T23:40:7Z</time></trkpt>
<trkpt lat="47.09589800" lon="7.06228600"><ele></ele><time>2014-6-21T23:40:10Z</time></trkpt>
<trkpt lat="47.09659200" lon="7.06195300"><ele></ele><time>2014-6-21T23:40:13Z</time></trkpt>
<trkpt lat="47.09721400" lon="7.06174900"><ele></ele><time>2014-6-21T23:40:16Z</time></trkpt>
<trkpt lat="47.09781300" lon="7.06167700"><ele></ele><time>2014-6-21T23:40:19Z</time></trkpt>
<trkpt lat="47.09833500" lon="7.06170300"><ele></ele><time>2014-6-21T23:40:22Z</time></trkpt>
<trkpt lat="47.09895700" lon="7.06186200"><ele></ele><time>2014-6-21T23:40:25Z</time></trkpt>
<trkpt lat="47.09964400" lon="7.06217700"><ele></ele><time>2014-6-21T23:40:28Z</time></trkpt>
<trkpt lat="47.10006700" lon="7.06244400"><ele></ele><time>2014-6-21T23:40:31Z</time></trkpt>
<trkpt lat="47.10010900" lon="7.06255300"><ele></ele><time>2014-6-21T23:40:34Z</time></trkpt>
<trkpt lat="47.10028800" lon="7.06319500"><ele></ele><time>2014-6-21T23:40:37Z</time></trkpt>
<trkpt lat="47.10050200" lon="7.06389300"><ele></ele><time>2014-6-21T23:40:40Z</time></trkpt>
<trkpt lat="47.10071200" lon="7.06462200"><ele></ele><time>2014-6-21T23:40:43Z</time></trkpt>
<trkpt lat="47.10096000" lon="7.06546600"><ele></ele><time>2014-6-21T23:40:46Z</time></trkpt>
<trkpt lat="47.10117300" lon="7.06614400"><ele></ele><time>2014-6-21T23:40:49Z</time></trkpt>
<trkpt lat="47.10144000" lon="7.06703600"><ele></ele><time>2014-6-21T23:40:52Z</time></trkpt>
<trkpt lat="47.10168100" lon="7.06779700"><ele></ele><time>2014-6-21T23:40:55Z</time></trkpt>
<trkpt lat="47.10190200" lon="7.06854700"><ele></ele><time>2014-6-21T23:40:58Z</time></trkpt>
<trkpt lat="47.10206600" lon="7.06906900"><ele></ele><time>2014-6-21T23:41:1Z</time></trkpt>
<trkpt lat="47.10221100" lon="7.06957400"><ele></ele><time>2014-6-21T23:41:4Z</time></trkpt>
<trkpt lat="47.10234500" lon="7.07001400"><ele></ele><time>2014-6-21T23:41:7Z</time></trkpt>
<trkpt lat="47.10253500" lon="7.07066800"><ele></ele><time>2014-6-21T23:41:10Z</time></trkpt>
<trkpt lat="47.10272200" lon="7.07128700"><ele></ele><time>2014-6-21T23:41:13Z</time></trkpt>
<trkpt lat="47.10295500" lon="7.07202300"><ele></ele><time>2014-6-21T23:41:16Z</time></trkpt>
<trkpt lat="47.10311500" lon="7.07255200"><ele></ele><time>2014-6-21T23:41:19Z</time></trkpt>
<trkpt lat="47.10329100" lon="7.07311900"><ele></ele><time>2014-6-21T23:41:22Z</time></trkpt>
<trkpt lat="47.10348900" lon="7.07380800"><ele></ele><time>2014-6-21T23:41:25Z</time></trkpt>
<trkpt lat="47.10368700" lon="7.07442700"><ele></ele><time>2014-6-21T23:41:28Z</time></trkpt>
<trkpt lat="47.10376700" lon="7.07475000"><ele></ele><time>2014-6-21T23:41:31Z</time></trkpt>
<trkpt lat="47.10383600" lon="7.07531100"><ele></ele><time>2014-6-21T23:41:34Z</time></trkpt>
<trkpt lat="47.10392000" lon="7.07617500"><ele></ele><time>2014-6-21T23:41:37Z</time></trkpt>
<trkpt lat="47.10398900" lon="7.07693100"><ele></ele><time>2014-6-21T23:41:40Z</time></trkpt>
<trkpt lat="47.10404600" lon="7.07766700"><ele></ele><time>2014-6-21T23:41:43Z</time></trkpt>
<trkpt lat="47.10413000" lon="7.07844300"><ele></ele><time>2014-6-21T23:41:46Z</time></trkpt>
<trkpt lat="47.10421800" lon="7.07936300"><ele></ele><time>2014-6-21T23:41:49Z</time></trkpt>
<trkpt lat="47.10430500" lon="7.08033000"><ele></ele><time>2014-6-21T23:41:52Z</time></trkpt>
<trkpt lat="47.10433200" lon="7.08054600"><ele></ele><time>2014-6-21T23:41:55Z</time></trkpt>
<trkpt lat="47.10441600" lon="7.08143800"><ele></ele><time>2014-6-21T23:41:58Z</time></trkpt>
<trkpt lat="47.10448800" lon="7.08220500"><ele></ele><time>2014-6-21T23:42:1Z</time></trkpt>
<trkpt lat="47.10458400" lon="7.08320100"><ele></ele><time>2014-6-21T23:42:4Z</time></trkpt>
<trkpt lat="47.10464500" lon="7.08384000"><ele></ele><time>2014-6-21T23:42:7Z</time></trkpt>
<trkpt lat="47.10471000" lon="7.08452900"><ele></ele><time>2014-6-21T23:42:10Z</time></trkpt>
<trkpt lat="47.10477800" lon="7.08518800"><ele></ele><time>2014-6-21T23:42:13Z</time></trkpt>
<trkpt lat="47.10487400" lon="7.08586000"><ele></ele><time>2014-6-21T23:42:16Z</time></trkpt>
<trkpt lat="47.10495400" lon="7.08617200"><ele></ele><time>2014-6-21T23:42:19Z</time></trkpt>
<trkpt lat="47.10516000" lon="7.08704500"><ele></ele><time>2014-6-21T23:42:22Z</time></trkpt>
<trkpt lat="47.10542700" lon="7.08802400"><ele></ele><time>2014-6-21T23:42:25Z</time></trkpt>
<trkpt lat="47.10566300" lon="7.08887100"><ele></ele><time>2014-6-21T23:42:28Z</time></trkpt>
<trkpt lat="47.10592300" lon="7.08972500"><ele></ele><time>2014-6-21T23:42:31Z</time></trkpt>
<trkpt lat="47.10610200" lon="7.09035800"><ele></ele><time>2014-6-21T23:42:34Z</time></trkpt>
<trkpt lat="47.10625800" lon="7.09115600"><ele></ele><time>2014-6-21T23:42:37Z</time></trkpt>
<trkpt lat="47.10627000" lon="7.09188700"><ele></ele><time>2014-6-21T23:42:40Z</time></trkpt>
<trkpt lat="47.10629700" lon="7.09260400"><ele></ele><time>2014-6-21T23:42:43Z</time></trkpt>
<trkpt lat="47.10627400" lon="7.09335600"><ele></ele><time>2014-6-21T23:42:46Z</time></trkpt>
<trkpt lat="47.10622000" lon="7.09417700"><ele></ele><time>2014-6-21T23:42:49Z</time></trkpt>
<trkpt lat="47.10619400" lon="7.09505600"><ele></ele><time>2014-6-21T23:42:52Z</time></trkpt>
<trkpt lat="47.10616700" lon="7.09569900"><ele></ele><time>2014-6-21T23:42:55Z</time></trkpt>
<trkpt lat="47.10616300" lon="7.09607200"><ele></ele><time>2014-6-21T23:42:58Z</time></trkpt>
<trkpt lat="47.10615200" lon="7.09630800"><ele></ele><time>2014-6-21T23:43:1Z</time></trkpt>
<trkpt lat="47.10614800" lon="7.09706300"><ele></ele><time>2014-6-21T23:43:4Z</time></trkpt>
<trkpt lat="47.10614800" lon="7.09796900"><ele></ele><time>2014-6-21T23:43:7Z</time></trkpt>
<trkpt lat="47.10615500" lon="7.09838200"><ele></ele><time>2014-6-21T23:43:10Z</time></trkpt>
<trkpt lat="47.10615200" lon="7.09933600"><ele></ele><time>2014-6-21T23:43:13Z</time></trkpt>
<trkpt lat="47.10621600" lon="7.10010000"><ele></ele><time>2014-6-21T23:43:16Z</time></trkpt>
<trkpt lat="47.10632700" lon="7.10098900"><ele></ele><time>2014-6-21T23:43:19Z</time></trkpt>
<trkpt lat="47.10640700" lon="7.10163800"><ele></ele><time>2014-6-21T23:43:22Z</time></trkpt>
<trkpt lat="47.10649100" lon="7.10227800"><ele></ele><time>2014-6-21T23:43:25Z</time></trkpt>
<trkpt lat="47.10659800" lon="7.10306700"><ele></ele><time>2014-6-21T23:43:28Z</time></trkpt>
<trkpt lat="47.10667400" lon="7.10365100"><ele></ele><time>2014-6-21T23:43:31Z</time></trkpt>
<trkpt lat="47.10675800" lon="7.10427700"><ele></ele><time>2014-6-21T23:43:34Z</time></trkpt>
<trkpt lat="47.10685700" lon="7.10492500"><ele></ele><time>2014-6-21T23:43:37Z</time></trkpt>
<trkpt lat="47.10697900" lon="7.10575200"><ele></ele><time>2014-6-21T23:43:40Z</time></trkpt>
<trkpt lat="47.10706300" lon="7.10631700"><ele></ele><time>2014-6-21T23:43:43Z</time></trkpt>
<trkpt lat="47.10710100" lon="7.10659600"><ele></ele><time>2014-6-21T23:43:46Z</time></trkpt>
<trkpt lat="47.10726200" lon="7.10744200"><ele></ele><time>2014-6-21T23:43:49Z</time></trkpt>
<trkpt lat="47.10743300" lon="7.10825200"><ele></ele><time>2014-6-21T23:43:52Z</time></trkpt>
<trkpt lat="47.10759000" lon="7.10894300"><ele></ele><time>2014-6-21T23:43:55Z</time></trkpt>
<trkpt lat="47.10775400" lon="7.10968500"><ele></ele><time>2014-6-21T23:43:58Z</time></trkpt>
<trkpt lat="47.10789100" lon="7.11034700"><ele></ele><time>2014-6-21T23:44:1Z</time></trkpt>
<trkpt lat="47.10803600" lon="7.11103300"><ele></ele><time>2014-6-21T23:44:4Z</time></trkpt>
<trkpt lat="47.10813500" lon="7.11150600"><ele></ele><time>2014-6-21T23:44:7Z</time></trkpt>
<trkpt lat="47.10828400" lon="7.11213400"><ele></ele><time>2014-6-21T23:44:10Z</time></trkpt>
<trkpt lat="47.10838300" lon="7.11231600"><ele></ele><time>2014-6-21T23:44:13Z</time></trkpt>
<trkpt lat="47.10865400" lon="7.11243800"><ele></ele><time>2014-6-21T23:44:16Z</time></trkpt>
<trkpt lat="47.10902400" lon="7.11250000"><ele></ele><time>2014-6-21T23:44:19Z</time></trkpt>
<trkpt lat="47.10948200" lon="7.11256100"><ele></ele><time>2014-6-21T23:44:22Z</time></trkpt>
<trkpt lat="47.10977600" lon="7.11245100"><ele></ele><time>2014-6-21T23:44:25Z</time></trkpt>
<trkpt lat="47.11006900" lon="7.11234100"><ele></ele><time>2014-6-21T23:44:28Z</time></trkpt>
<trkpt lat="47.11043900" lon="7.11213400"><ele></ele><time>2014-6-21T23:44:31Z</time></trkpt>
<trkpt lat="47.11065700" lon="7.11194600"><ele></ele><time>2014-6-21T23:44:34Z</time></trkpt>
<trkpt lat="47.11088600" lon="7.11182000"><ele></ele><time>2014-6-21T23:44:37Z</time></trkpt>
<trkpt lat="47.11112600" lon="7.11174300"><ele></ele><time>2014-6-21T23:44:40Z</time></trkpt>
<trkpt lat="47.11129000" lon="7.11159100"><ele></ele><time>2014-6-21T23:44:43Z</time></trkpt>
<trkpt lat="47.11148800" lon="7.11137500"><ele></ele><time>2014-6-21T23:44:46Z</time></trkpt>
<trkpt lat="47.11176700" lon="7.11148300"><ele></ele><time>2014-6-21T23:44:49Z</time></trkpt>
<trkpt lat="47.11191600" lon="7.11172900"><ele></ele><time>2014-6-21T23:44:52Z</time></trkpt>
<trkpt lat="47.11211400" lon="7.11210600"><ele></ele><time>2014-6-21T23:44:55Z</time></trkpt>
<trkpt lat="47.11235400" lon="7.11264100"><ele></ele><time>2014-6-21T23:44:58Z</time></trkpt>
<trkpt lat="47.11255600" lon="7.11306200"><ele></ele><time>2014-6-21T23:45:1Z</time></trkpt>
<trkpt lat="47.11274700" lon="7.11359300"><ele></ele><time>2014-6-21T23:45:4Z</time></trkpt>
<trkpt lat="47.11278900" lon="7.11412600"><ele></ele><time>2014-6-21T23:45:7Z</time></trkpt>
<trkpt lat="47.11286200" lon="7.11475100"><ele></ele><time>2014-6-21T23:45:10Z</time></trkpt>
<trkpt lat="47.11304100" lon="7.11540100"><ele></ele><time>2014-6-21T23:45:13Z</time></trkpt>
<trkpt lat="47.11319700" lon="7.11594400"><ele></ele><time>2014-6-21T23:45:16Z</time></trkpt>
<trkpt lat="47.11322800" lon="7.11610700"><ele></ele><time>2014-6-21T23:45:19Z</time></trkpt>
<trkpt lat="47.11325800" lon="7.11610800"><ele></ele><time>2014-6-21T23:45:22Z</time></trkpt>
<trkpt lat="47.11341100" lon="7.11596500"><ele></ele><time>2014-6-21T23:45:25Z</time></trkpt>
<trkpt lat="47.11347600" lon="7.11568700"><ele></ele><time>2014-6-21T23:45:28Z</time></trkpt>
<trkpt lat="47.11347200" lon="7.11548500"><ele></ele><time>2014-6-21T23:45:31Z</time></trkpt>
<trkpt lat="47.11341900" lon="7.11511400"><ele></ele><time>2014-6-21T23:45:34Z</time></trkpt>
<trkpt lat="47.11347200" lon="7.11471100"><ele></ele><time>2014-6-21T23:45:37Z</time></trkpt>
<trkpt lat="47.11355200" lon="7.11435700"><ele></ele><time>2014-6-21T23:45:40Z</time></trkpt>
<trkpt lat="47.11359000" lon="7.11399800"><ele></ele><time>2014-6-21T23:45:43Z</time></trkpt>
<trkpt lat="47.11353700" lon="7.11364200"><ele></ele><time>2014-6-21T23:45:46Z</time></trkpt>
<trkpt lat="47.11343400" lon="7.11325000"><ele></ele><time>2014-6-21T23:45:49Z</time></trkpt>
<trkpt lat="47.11335800" lon="7.11297200"><ele></ele><time>2014-6-21T23:45:52Z</time></trkpt>
<trkpt lat="47.11331600" lon="7.11279600"><ele></ele><time>2014-6-21T23:45:55Z</time></trkpt>
<trkpt lat="47.11330000" lon="7.11235200"><ele></ele><time>2014-6-21T23:45:58Z</time></trkpt>
<trkpt lat="47.11323500" lon="7.11203100"><ele></ele><time>2014-6-21T23:46:1Z</time></trkpt>
<trkpt lat="47.11321300" lon="7.11161500"><ele></ele><time>2014-6-21T23:46:4Z</time></trkpt>
<trkpt lat="47.11315900" lon="7.11128000"><ele></ele><time>2014-6-21T23:46:7Z</time></trkpt>
<trkpt lat="47.11308300" lon="7.11096200"><ele></ele><time>2014-6-21T23:46:10Z</time></trkpt>
<trkpt lat="47.11293400" lon="7.11065700"><ele></ele><time>2014-6-21T23:46:13Z</time></trkpt>
<trkpt lat="47.11277800" lon="7.11037300"><ele></ele><time>2014-6-21T23:46:16Z</time></trkpt>
<trkpt lat="47.11265200" lon="7.11013500"><ele></ele><time>2014-6-21T23:46:19Z</time></trkpt>
<trkpt lat="47.11250700" lon="7.10983600"><ele></ele><time>2014-6-21T23:46:22Z</time></trkpt>
<trkpt lat="47.11231600" lon="7.10953300"><ele></ele><time>2014-6-21T23:46:25Z</time></trkpt>
<trkpt lat="47.11213300" lon="7.10928200"><ele></ele><time>2014-6-21T23:46:28Z</time></trkpt>
<trkpt lat="47.11198000" lon="7.10903300"><ele></ele><time>2014-6-21T23:46:31Z</time></trkpt>
<trkpt lat="47.11179400" lon="7.10858600"><ele></ele><time>2014-6-21T23:46:34Z</time></trkpt>
<trkpt lat="47.11166400" lon="7.10816800"><ele></ele><time>2014-6-21T23:46:37Z</time></trkpt>
<trkpt lat="47.11162900" lon="7.10785400"><ele></ele><time>2014-6-21T23:46:40Z</time></trkpt>
<trkpt lat="47.11167900" lon="7.10751400"><ele></ele><time>2014-6-21T23:46:43Z</time></trkpt>
<trkpt lat="47.11178200" lon="7.10710400"><ele></ele><time>2014-6-21T23:46:46Z</time></trkpt>
<trkpt lat="47.11188100" lon="7.10672900"><ele></ele><time>2014-6-21T23:46:49Z</time></trkpt>
<trkpt lat="47.11197700" lon="7.10628700"><ele></ele><time>2014-6-21T23:46:52Z</time></trkpt>
<trkpt lat="47.11197300" lon="7.10584900"><ele></ele><time>2014-6-21T23:46:55Z</time></trkpt>
<trkpt lat="47.11196500" lon="7.10535600"><ele></ele><time>2014-6-21T23:46:58Z</time></trkpt>
<trkpt lat="47.11195000" lon="7.10489500"><ele></ele><time>2014-6-21T23:47:1Z</time></trkpt>
<trkpt lat="47.11200700" lon="7.10449300"><ele></ele><time>2014-6-21T23:47:4Z</time></trkpt>
<trkpt lat="47.11211400" lon="7.10404300"><ele></ele><time>2014-6-21T23:47:7Z</time></trkpt>
<trkpt lat="47.11227400" lon="7.10359600"><ele></ele><time>2014-6-21T23:47:10Z</time></trkpt>
<trkpt lat="47.11245300" lon="7.10341600"><ele></ele><time>2014-6-21T23:47:13Z</time></trkpt>
<trkpt lat="47.11267500" lon="7.10329600"><ele></ele><time>2014-6-21T23:47:16Z</time></trkpt>
<trkpt lat="47.11285800" lon="7.10321300"><ele></ele><time>2014-6-21T23:47:19Z</time></trkpt>
<trkpt lat="47.11305600" lon="7.10310700"><ele></ele><time>2014-6-21T23:47:22Z</time></trkpt>
<trkpt lat="47.11329700" lon="7.10306200"><ele></ele><time>2014-6-21T23:47:25Z</time></trkpt>
<trkpt lat="47.11347600" lon="7.10315800"><ele></ele><time>2014-6-21T23:47:28Z</time></trkpt>
<trkpt lat="47.11364000" lon="7.10340200"><ele></ele><time>2014-6-21T23:47:31Z</time></trkpt>
<trkpt lat="47.11374300" lon="7.10367100"><ele></ele><time>2014-6-21T23:47:34Z</time></trkpt>
<trkpt lat="47.11385700" lon="7.10396500"><ele></ele><time>2014-6-21T23:47:37Z</time></trkpt>
<trkpt lat="47.11402500" lon="7.10440900"><ele></ele><time>2014-6-21T23:47:40Z</time></trkpt>
<trkpt lat="47.11413200" lon="7.10471100"><ele></ele><time>2014-6-21T23:47:43Z</time></trkpt>
<trkpt lat="47.11424300" lon="7.10502700"><ele></ele><time>2014-6-21T23:47:46Z</time></trkpt>
<trkpt lat="47.11433400" lon="7.10534200"><ele></ele><time>2014-6-21T23:47:49Z</time></trkpt>
<trkpt lat="47.11445200" lon="7.10556200"><ele></ele><time>2014-6-21T23:47:52Z</time></trkpt>
<trkpt lat="47.11457100" lon="7.10585500"><ele></ele><time>2014-6-21T23:47:55Z</time></trkpt>
<trkpt lat="47.11470400" lon="7.10611800"><ele></ele><time>2014-6-21T23:47:58Z</time></trkpt>
<trkpt lat="47.11490200" lon="7.10628500"><ele></ele><time>2014-6-21T23:48:1Z</time></trkpt>
<trkpt lat="47.11511600" lon="7.10631900"><ele></ele><time>2014-6-21T23:48:4Z</time></trkpt>
<trkpt lat="47.11536000" lon="7.10630100"><ele></ele><time>2014-6-21T23:48:7Z</time></trkpt>
<trkpt lat="47.11556600" lon="7.10629200"><ele></ele><time>2014-6-21T23:48:10Z</time></trkpt>
<trkpt lat="47.11578000" lon="7.10640800"><ele></ele><time>2014-6-21T23:48:13Z</time></trkpt>
<trkpt lat="47.11593600" lon="7.10657500"><ele></ele><time>2014-6-21T23:48:16Z</time></trkpt>
<trkpt lat="47.11607700" lon="7.10679100"><ele></ele><time>2014-6-21T23:48:19Z</time></trkpt>
<trkpt lat="47.11622200" lon="7.10696900"><ele></ele><time>2014-6-21T23:48:22Z</time></trkpt>
<trkpt lat="47.11636000" lon="7.10713600"><ele></ele><time>2014-6-21T23:48:25Z</time></trkpt>
<trkpt lat="47.11651200" lon="7.10732900"><ele></ele><time>2014-6-21T23:48:28Z</time></trkpt>
<trkpt lat="47.11661100" lon="7.10762800"><ele></ele><time>2014-6-21T23:48:31Z</time></trkpt>
<trkpt lat="47.11669200" lon="7.10789300"><ele></ele><time>2014-6-21T23:48:34Z</time></trkpt>
<trkpt lat="47.11676400" lon="7.10812600"><ele></ele><time>2014-6-21T23:48:37Z</time></trkpt>
<trkpt lat="47.11682300" lon="7.10834600"><ele></ele><time>2014-6-21T23:48:40Z</time></trkpt>
<trkpt lat="47.11688200" lon="7.10856500"><ele></ele><time>2014-6-21T23:48:43Z</time></trkpt>
<trkpt lat="47.11705800" lon="7.10871900"><ele></ele><time>2014-6-21T23:48:46Z</time></trkpt>
<trkpt lat="47.11726800" lon="7.10883400"><ele></ele><time>2014-6-21T23:48:49Z</time></trkpt>
<trkpt lat="47.11751900" lon="7.10891900"><ele></ele><time>2014-6-21T23:48:52Z</time></trkpt>
<trkpt lat="47.11777900" lon="7.10915500"><ele></ele><time>2014-6-21T23:48:55Z</time></trkpt>
<trkpt lat="47.11785900" lon="7.10938700"><ele></ele><time>2014-6-21T23:48:58Z</time></trkpt>
<trkpt lat="47.11792000" lon="7.10975100"><ele></ele><time>2014-6-21T23:49:1Z</time></trkpt>
<trkpt lat="47.11806100" lon="7.10995700"><ele></ele><time>2014-6-21T23:49:4Z</time></trkpt>
<trkpt lat="47.11819100" lon="7.11018100"><ele></ele><time>2014-6-21T23:49:7Z</time></trkpt>
<trkpt lat="47.11829200" lon="7.11029300"><ele></ele><time>2014-6-21T23:49:10Z</time></trkpt>
<trkpt lat="47.11839300" lon="7.11040500"><ele></ele><time>2014-6-21T23:49:13Z</time></trkpt>
<trkpt lat="47.11856800" lon="7.11036200"><ele></ele><time>2014-6-21T23:49:16Z</time></trkpt>
<trkpt lat="47.11868300" lon="7.11019900"><ele></ele><time>2014-6-21T23:49:19Z</time></trkpt>
<trkpt lat="47.11878200" lon="7.11002900"><ele></ele><time>2014-6-21T23:49:22Z</time></trkpt>
<trkpt lat="47.11890000" lon="7.10976800"><ele></ele><time>2014-6-21T23:49:25Z</time></trkpt>
<trkpt lat="47.11901900" lon="7.10955000"><ele></ele><time>2014-6-21T23:49:28Z</time></trkpt>
<trkpt lat="47.11919400" lon="7.10928200"><ele></ele><time>2014-6-21T23:49:31Z</time></trkpt>
<trkpt lat="47.11933900" lon="7.10908000"><ele></ele><time>2014-6-21T23:49:34Z</time></trkpt>
<trkpt lat="47.11951100" lon="7.10885400"><ele></ele><time>2014-6-21T23:49:37Z</time></trkpt>
<trkpt lat="47.11969000" lon="7.10864900"><ele></ele><time>2014-6-21T23:49:40Z</time></trkpt>
<trkpt lat="47.11987700" lon="7.10839900"><ele></ele><time>2014-6-21T23:49:43Z</time></trkpt>
<trkpt lat="47.12006400" lon="7.10814900"><ele></ele><time>2014-6-21T23:49:46Z</time></trkpt>
<trkpt lat="47.12024300" lon="7.10796000"><ele></ele><time>2014-6-21T23:49:49Z</time></trkpt>
<trkpt lat="47.12041500" lon="7.10775500"><ele></ele><time>2014-6-21T23:49:52Z</time></trkpt>
<trkpt lat="47.12068200" lon="7.10745000"><ele></ele><time>2014-6-21T23:49:55Z</time></trkpt>
<trkpt lat="47.12094500" lon="7.10713900"><ele></ele><time>2014-6-21T23:49:58Z</time></trkpt>
<trkpt lat="47.12112400" lon="7.10693900"><ele></ele><time>2014-6-21T23:50:1Z</time></trkpt>
<trkpt lat="47.12136100" lon="7.10669800"><ele></ele><time>2014-6-21T23:50:4Z</time></trkpt>
<trkpt lat="47.12159000" lon="7.10647800"><ele></ele><time>2014-6-21T23:50:7Z</time></trkpt>
<trkpt lat="47.12182200" lon="7.10628700"><ele></ele><time>2014-6-21T23:50:10Z</time></trkpt>
<trkpt lat="47.12207400" lon="7.10610200"><ele></ele><time>2014-6-21T23:50:13Z</time></trkpt>
<trkpt lat="47.12233700" lon="7.10586100"><ele></ele><time>2014-6-21T23:50:16Z</time></trkpt>
<trkpt lat="47.12256600" lon="7.10564600"><ele></ele><time>2014-6-21T23:50:19Z</time></trkpt>
<trkpt lat="47.12281000" lon="7.10548900"><ele></ele><time>2014-6-21T23:50:22Z</time></trkpt>
<trkpt lat="47.12317700" lon="7.10538400"><ele></ele><time>2014-6-21T23:50:25Z</time></trkpt>
<trkpt lat="47.12345500" lon="7.10539100"><ele></ele><time>2014-6-21T23:50:28Z</time></trkpt>
<trkpt lat="47.12359600" lon="7.10557500"><ele></ele><time>2014-6-21T23:50:31Z</time></trkpt>
<trkpt lat="47.12369200" lon="7.10582200"><ele></ele><time>2014-6-21T23:50:34Z</time></trkpt>
<trkpt lat="47.12368800" lon="7.10618400"><ele></ele><time>2014-6-21T23:50:37Z</time></trkpt>
<trkpt lat="47.12358500" lon="7.10640600"><ele></ele><time>2014-6-21T23:50:40Z</time></trkpt>
<trkpt lat="47.12342800" lon="7.10662400"><ele></ele><time>2014-6-21T23:50:43Z</time></trkpt>
<trkpt lat="47.12325300" lon="7.10678300"><ele></ele><time>2014-6-21T23:50:46Z</time></trkpt>
<trkpt lat="47.12307000" lon="7.10698300"><ele></ele><time>2014-6-21T23:50:49Z</time></trkpt>
<trkpt lat="47.12298200" lon="7.10714000"><ele></ele><time>2014-6-21T23:50:52Z</time></trkpt>
<trkpt lat="47.12294800" lon="7.10718700"><ele></ele><time>2014-6-21T23:50:55Z</time></trkpt>
<trkpt lat="47.12283700" lon="7.10728800"><ele></ele><time>2014-6-21T23:50:58Z</time></trkpt>
<trkpt lat="47.12272600" lon="7.10738800"><ele></ele><time>2014-6-21T23:51:1Z</time></trkpt>
<trkpt lat="47.12265000" lon="7.10774100"><ele></ele><time>2014-6-21T23:51:4Z</time></trkpt>
<trkpt lat="47.12258300" lon="7.10808400"><ele></ele><time>2014-6-21T23:51:7Z</time></trkpt>
<trkpt lat="47.12251700" lon="7.10842700"><ele></ele><time>2014-6-21T23:51:10Z</time></trkpt>
<trkpt lat="47.12241700" lon="7.10891700"><ele></ele><time>2014-6-21T23:51:13Z</time></trkpt>
<trkpt lat="47.12229900" lon="7.10930300"><ele></ele><time>2014-6-21T23:51:16Z</time></trkpt>
<trkpt lat="47.12217700" lon="7.10985100"><ele></ele><time>2014-6-21T23:51:19Z</time></trkpt>
<trkpt lat="47.12210500" lon="7.11026500"><ele></ele><time>2014-6-21T23:51:22Z</time></trkpt>
<trkpt lat="47.12198300" lon="7.11078600"><ele></ele><time>2014-6-21T23:51:25Z</time></trkpt>
<trkpt lat="47.12184500" lon="7.11135500"><ele></ele><time>2014-6-21T23:51:28Z</time></trkpt>
<trkpt lat="47.12176100" lon="7.11177700"><ele></ele><time>2014-6-21T23:51:31Z</time></trkpt>
<trkpt lat="47.12167400" lon="7.11216300"><ele></ele><time>2014-6-21T23:51:34Z</time></trkpt>
<trkpt lat="47.12161600" lon="7.11265100"><ele></ele><time>2014-6-21T23:51:37Z</time></trkpt>
<trkpt lat="47.12159700" lon="7.11308000"><ele></ele><time>2014-6-21T23:51:40Z</time></trkpt>
<trkpt lat="47.12158800" lon="7.11349000"><ele></ele><time>2014-6-21T23:51:43Z</time></trkpt>
<trkpt lat="47.12157800" lon="7.11390000"><ele></ele><time>2014-6-21T23:51:46Z</time></trkpt>
<trkpt lat="47.12156300" lon="7.11435000"><ele></ele><time>2014-6-21T23:51:49Z</time></trkpt>
<trkpt lat="47.12153600" lon="7.11489800"><ele></ele><time>2014-6-21T23:51:52Z</time></trkpt>
<trkpt lat="47.12151700" lon="7.11534300"><ele></ele><time>2014-6-21T23:51:55Z</time></trkpt>
<trkpt lat="47.12149000" lon="7.11581200"><ele></ele><time>2014-6-21T23:51:58Z</time></trkpt>
<trkpt lat="47.12150800" lon="7.11634900"><ele></ele><time>2014-6-21T23:52:1Z</time></trkpt>
<trkpt lat="47.12152500" lon="7.11688700"><ele></ele><time>2014-6-21T23:52:4Z</time></trkpt>
<trkpt lat="47.12156300" lon="7.11736100"><ele></ele><time>2014-6-21T23:52:7Z</time></trkpt>
<trkpt lat="47.12161600" lon="7.11787900"><ele></ele><time>2014-6-21T23:52:10Z</time></trkpt>
<trkpt lat="47.12165700" lon="7.11836200"><ele></ele><time>2014-6-21T23:52:13Z</time></trkpt>
<trkpt lat="47.12169800" lon="7.11884500"><ele></ele><time>2014-6-21T23:52:16Z</time></trkpt>
<trkpt lat="47.12173800" lon="7.11932800"><ele></ele><time>2014-6-21T23:52:19Z</time></trkpt>
<trkpt lat="47.12183400" lon="7.11983800"><ele></ele><time>2014-6-21T23:52:22Z</time></trkpt>
<trkpt lat="47.12184900" lon="7.12014500"><ele></ele><time>2014-6-21T23:52:25Z</time></trkpt>
<trkpt lat="47.12196700" lon="7.12062800"><ele></ele><time>2014-6-21T23:52:28Z</time></trkpt>
<trkpt lat="47.12207400" lon="7.12095000"><ele></ele><time>2014-6-21T23:52:31Z</time></trkpt>
<trkpt lat="47.12221900" lon="7.12141200"><ele></ele><time>2014-6-21T23:52:34Z</time></trkpt>
<trkpt lat="47.12233000" lon="7.12186400"><ele></ele><time>2014-6-21T23:52:37Z</time></trkpt>
<trkpt lat="47.12244400" lon="7.12211600"><ele></ele><time>2014-6-21T23:52:40Z</time></trkpt>
<trkpt lat="47.12248400" lon="7.12211000"><ele></ele><time>2014-6-21T23:52:43Z</time></trkpt>
<trkpt lat="47.12252400" lon="7.12210400"><ele></ele><time>2014-6-21T23:52:46Z</time></trkpt>
<trkpt lat="47.12256400" lon="7.12209900"><ele></ele><time>2014-6-21T23:52:49Z</time></trkpt>
<trkpt lat="47.12260400" lon="7.12209300"><ele></ele><time>2014-6-21T23:52:52Z</time></trkpt>
<trkpt lat="47.12260100" lon="7.12209400"><ele></ele><time>2014-6-21T23:52:55Z</time></trkpt>
<trkpt lat="47.12260100" lon="7.12209500"><ele></ele><time>2014-6-21T23:52:58Z</time></trkpt>
<trkpt lat="47.12260100" lon="7.12208600"><ele></ele><time>2014-6-21T23:53:1Z</time></trkpt>
<trkpt lat="47.12262000" lon="7.12199400"><ele></ele><time>2014-6-21T23:53:4Z</time></trkpt>
<trkpt lat="47.12274900" lon="7.12174400"><ele></ele><time>2014-6-21T23:53:7Z</time></trkpt>
<trkpt lat="47.12279100" lon="7.12151600"><ele></ele><time>2014-6-21T23:53:10Z</time></trkpt>
<trkpt lat="47.12270700" lon="7.12110500"><ele></ele><time>2014-6-21T23:53:13Z</time></trkpt>
<trkpt lat="47.12268100" lon="7.12098300"><ele></ele><time>2014-6-21T23:53:16Z</time></trkpt>
<trkpt lat="47.12267300" lon="7.12068400"><ele></ele><time>2014-6-21T23:53:19Z</time></trkpt>
<trkpt lat="47.12274600" lon="7.12026300"><ele></ele><time>2014-6-21T23:53:22Z</time></trkpt>
<trkpt lat="47.12286400" lon="7.11973200"><ele></ele><time>2014-6-21T23:53:25Z</time></trkpt>
<trkpt lat="47.12307400" lon="7.11938100"><ele></ele><time>2014-6-21T23:53:28Z</time></trkpt>
<trkpt lat="47.12331400" lon="7.11919400"><ele></ele><time>2014-6-21T23:53:31Z</time></trkpt>
<trkpt lat="47.12348600" lon="7.11892800"><ele></ele><time>2014-6-21T23:53:34Z</time></trkpt>
<trkpt lat="47.12361500" lon="7.11849700"><ele></ele><time>2014-6-21T23:53:37Z</time></trkpt>
<trkpt lat="47.12375300" lon="7.11798700"><ele></ele><time>2014-6-21T23:53:40Z</time></trkpt>
<trkpt lat="47.12388600" lon="7.11750800"><ele></ele><time>2014-6-21T23:53:43Z</time></trkpt>
<trkpt lat="47.12413400" lon="7.11711000"><ele></ele><time>2014-6-21T23:53:46Z</time></trkpt>
<trkpt lat="47.12433200" lon="7.11685800"><ele></ele><time>2014-6-21T23:53:49Z</time></trkpt>
<trkpt lat="47.12450000" lon="7.11668300"><ele></ele><time>2014-6-21T23:53:52Z</time></trkpt>
<trkpt lat="47.12470200" lon="7.11652500"><ele></ele><time>2014-6-21T23:53:55Z</time></trkpt>
<trkpt lat="47.12490500" lon="7.11636600"><ele></ele><time>2014-6-21T23:53:58Z</time></trkpt>
<trkpt lat="47.12504600" lon="7.11630500"><ele></ele><time>2014-6-21T23:54:1Z</time></trkpt>
<trkpt lat="47.12523300" lon="7.11621900"><ele></ele><time>2014-6-21T23:54:4Z</time></trkpt>
<trkpt lat="47.12542700" lon="7.11611300"><ele></ele><time>2014-6-21T23:54:7Z</time></trkpt>
<trkpt lat="47.12564800" lon="7.11598400"><ele></ele><time>2014-6-21T23:54:10Z</time></trkpt>
<trkpt lat="47.12580900" lon="7.11590500"><ele></ele><time>2014-6-21T23:54:13Z</time></trkpt>
<trkpt lat="47.12602600" lon="7.11579800"><ele></ele><time>2014-6-21T23:54:16Z</time></trkpt>
<trkpt lat="47.12621700" lon="7.11569400"><ele></ele><time>2014-6-21T23:54:19Z</time></trkpt>
<trkpt lat="47.12638100" lon="7.11560000"><ele></ele><time>2014-6-21T23:54:22Z</time></trkpt>
<trkpt lat="47.12656400" lon="7.11553000"><ele></ele><time>2014-6-21T23:54:25Z</time></trkpt>
<trkpt lat="47.12674300" lon="7.11556100"><ele></ele><time>2014-6-21T23:54:28Z</time></trkpt>
<trkpt lat="47.12691500" lon="7.11568500"><ele></ele><time>2014-6-21T23:54:31Z</time></trkpt>
<trkpt lat="47.12707500" lon="7.11576400"><ele></ele><time>2014-6-21T23:54:34Z</time></trkpt>
<trkpt lat="47.12722400" lon="7.11582700"><ele></ele><time>2014-6-21T23:54:37Z</time></trkpt>
<trkpt lat="47.12741100" lon="7.11582900"><ele></ele><time>2014-6-21T23:54:40Z</time></trkpt>
<trkpt lat="47.12759000" lon="7.11580700"><ele></ele><time>2014-6-21T23:54:43Z</time></trkpt>
<trkpt lat="47.12776900" lon="7.11584900"><ele></ele><time>2014-6-21T23:54:46Z</time></trkpt>
<trkpt lat="47.12791800" lon="7.11590900"><ele></ele><time>2014-6-21T23:54:49Z</time></trkpt>
<trkpt lat="47.12810900" lon="7.11599700"><ele></ele><time>2014-6-21T23:54:52Z</time></trkpt>
<trkpt lat="47.12832300" lon="7.11610200"><ele></ele><time>2014-6-21T23:54:55Z</time></trkpt>
<trkpt lat="47.12845600" lon="7.11616000"><ele></ele><time>2014-6-21T23:54:58Z</time></trkpt>
<trkpt lat="47.12862400" lon="7.11624700"><ele></ele><time>2014-6-21T23:55:1Z</time></trkpt>
<trkpt lat="47.12876500" lon="7.11633300"><ele></ele><time>2014-6-21T23:55:4Z</time></trkpt>
<trkpt lat="47.12889500" lon="7.11645100"><ele></ele><time>2014-6-21T23:55:7Z</time></trkpt>
<trkpt lat="47.12904000" lon="7.11659200"><ele></ele><time>2014-6-21T23:55:10Z</time></trkpt>
<trkpt lat="47.12917700" lon="7.11675700"><ele></ele><time>2014-6-21T23:55:13Z</time></trkpt>
<trkpt lat="47.12932200" lon="7.11693300"><ele></ele><time>2014-6-21T23:55:16Z</time></trkpt>
<trkpt lat="47.12947100" lon="7.11711800"><ele></ele><time>2014-6-21T23:55:19Z</time></trkpt>
<trkpt lat="47.12963500" lon="7.11731800"><ele></ele><time>2014-6-21T23:55:22Z</time></trkpt>
<trkpt lat="47.12967700" lon="7.11740500"><ele></ele><time>2014-6-21T23:55:25Z</time></trkpt>
<trkpt lat="47.12981800" lon="7.11758500"><ele></ele><time>2014-6-21T23:55:28Z</time></trkpt>
<trkpt lat="47.12996300" lon="7.11780000"><ele></ele><time>2014-6-21T23:55:31Z</time></trkpt>
<trkpt lat="47.13007000" lon="7.11800400"><ele></ele><time>2014-6-21T23:55:34Z</time></trkpt>
<trkpt lat="47.13018000" lon="7.11821800"><ele></ele><time>2014-6-21T23:55:37Z</time></trkpt>
<trkpt lat="47.13029900" lon="7.11846700"><ele></ele><time>2014-6-21T23:55:40Z</time></trkpt>
<trkpt lat="47.13039800" lon="7.11859900"><ele></ele><time>2014-6-21T23:55:43Z</time></trkpt>
<trkpt lat="47.13046300" lon="7.11878300"><ele></ele><time>2014-6-21T23:55:46Z</time></trkpt>
<trkpt lat="47.13053500" lon="7.11903200"><ele></ele><time>2014-6-21T23:55:49Z</time></trkpt>
<trkpt lat="47.13055000" lon="7.11928800"><ele></ele><time>2014-6-21T23:55:52Z</time></trkpt>
<trkpt lat="47.13049700" lon="7.11961100"><ele></ele><time>2014-6-21T23:55:55Z</time></trkpt>
<trkpt lat="47.13045100" lon="7.11985400"><ele></ele><time>2014-6-21T23:55:58Z</time></trkpt>
<trkpt lat="47.13039000" lon="7.12011100"><ele></ele><time>2014-6-21T23:56:1Z</time></trkpt>
<trkpt lat="47.13034100" lon="7.12037400"><ele></ele><time>2014-6-21T23:56:4Z</time></trkpt>
<trkpt lat="47.13028000" lon="7.12065300"><ele></ele><time>2014-6-21T23:56:7Z</time></trkpt>
<trkpt lat="47.13019600" lon="7.12103800"><ele></ele><time>2014-6-21T23:56:10Z</time></trkpt>
<trkpt lat="47.13013500" lon="7.12131000"><ele></ele><time>2014-6-21T23:56:13Z</time></trkpt>
<trkpt lat="47.13008100" lon="7.12154600"><ele></ele><time>2014-6-21T23:56:16Z</time></trkpt>
<trkpt lat="47.13003900" lon="7.12177700"><ele></ele><time>2014-6-21T23:56:19Z</time></trkpt>
<trkpt lat="47.12998200" lon="7.12201500"><ele></ele><time>2014-6-21T23:56:22Z</time></trkpt>
<trkpt lat="47.12998200" lon="7.12202300"><ele></ele><time>2014-6-21T23:56:25Z</time></trkpt>
<trkpt lat="47.12996200" lon="7.12238600"><ele></ele><time>2014-6-21T23:56:28Z</time></trkpt>
<trkpt lat="47.12994100" lon="7.12274900"><ele></ele><time>2014-6-21T23:56:31Z</time></trkpt>
<trkpt lat="47.12992100" lon="7.12311200"><ele></ele><time>2014-6-21T23:56:34Z</time></trkpt>
<trkpt lat="47.12992100" lon="7.12311200"><ele></ele><time>2014-6-21T23:56:37Z</time></trkpt>
<trkpt lat="47.12992900" lon="7.12338000"><ele></ele><time>2014-6-21T23:56:40Z</time></trkpt>
<trkpt lat="47.12993600" lon="7.12377700"><ele></ele><time>2014-6-21T23:56:43Z</time></trkpt>
<trkpt lat="47.13009300" lon="7.12433200"><ele></ele><time>2014-6-21T23:56:46Z</time></trkpt>
<trkpt lat="47.13034100" lon="7.12493000"><ele></ele><time>2014-6-21T23:56:49Z</time></trkpt>
<trkpt lat="47.13037500" lon="7.12500000"><ele></ele><time>2014-6-21T23:56:52Z</time></trkpt>
<trkpt lat="47.13082900" lon="7.12576500"><ele></ele><time>2014-6-21T23:56:55Z</time></trkpt>
<trkpt lat="47.13101200" lon="7.12633400"><ele></ele><time>2014-6-21T23:56:58Z</time></trkpt>
<trkpt lat="47.13108400" lon="7.12672300"><ele></ele><time>2014-6-21T23:57:1Z</time></trkpt>
<trkpt lat="47.13110700" lon="7.12694200"><ele></ele><time>2014-6-21T23:57:4Z</time></trkpt>
<trkpt lat="47.13112300" lon="7.12735700"><ele></ele><time>2014-6-21T23:57:7Z</time></trkpt>
<trkpt lat="47.13110400" lon="7.12789800"><ele></ele><time>2014-6-21T23:57:10Z</time></trkpt>
<trkpt lat="47.13111500" lon="7.12860200"><ele></ele><time>2014-6-21T23:57:13Z</time></trkpt>
<trkpt lat="47.13115700" lon="7.12909200"><ele></ele><time>2014-6-21T23:57:16Z</time></trkpt>
<trkpt lat="47.13116500" lon="7.12920200"><ele></ele><time>2014-6-21T23:57:19Z</time></trkpt>
<trkpt lat="47.13115900" lon="7.12924500"><ele></ele><time>2014-6-21T23:57:22Z</time></trkpt>
<trkpt lat="47.13115400" lon="7.12928900"><ele></ele><time>2014-6-21T23:57:25Z</time></trkpt>
<trkpt lat="47.13114900" lon="7.12933300"><ele></ele><time>2014-6-21T23:57:28Z</time></trkpt>
<trkpt lat="47.13114900" lon="7.12933200"><ele></ele><time>2014-6-21T23:57:31Z</time></trkpt>
<trkpt lat="47.13118700" lon="7.12948800"><ele></ele><time>2014-6-21T23:57:34Z</time></trkpt>
<trkpt lat="47.13122600" lon="7.12964400"><ele></ele><time>2014-6-21T23:57:37Z</time></trkpt>
<trkpt lat="47.13126400" lon="7.12980000"><ele></ele><time>2014-6-21T23:57:40Z</time></trkpt>
<trkpt lat="47.13133600" lon="7.12989000"><ele></ele><time>2014-6-21T23:57:43Z</time></trkpt>
<trkpt lat="47.13150400" lon="7.12996200"><ele></ele><time>2014-6-21T23:57:46Z</time></trkpt>
<trkpt lat="47.13182100" lon="7.13009500"><ele></ele><time>2014-6-21T23:57:49Z</time></trkpt>
<trkpt lat="47.13209500" lon="7.13021800"><ele></ele><time>2014-6-21T23:57:52Z</time></trkpt>
<trkpt lat="47.13232800" lon="7.13036500"><ele></ele><time>2014-6-21T23:57:55Z</time></trkpt>
<trkpt lat="47.13197100" lon="7.13086300"><ele></ele><time>2014-6-21T23:57:58Z</time></trkpt>
<trkpt lat="47.13161300" lon="7.13136100"><ele></ele><time>2014-6-21T23:58:1Z</time></trkpt>
<trkpt lat="47.13125600" lon="7.13185900"><ele></ele><time>2014-6-21T23:58:4Z</time></trkpt>
<trkpt lat="47.13125600" lon="7.13186100"><ele></ele><time>2014-6-21T23:58:7Z</time></trkpt>
<trkpt lat="47.13125600" lon="7.13186300"><ele></ele><time>2014-6-21T23:58:10Z</time></trkpt>
<trkpt lat="47.13116500" lon="7.13208600"><ele></ele><time>2014-6-21T23:58:13Z</time></trkpt>
<trkpt lat="47.13105800" lon="7.13226500"><ele></ele><time>2014-6-21T23:58:16Z</time></trkpt>
<trkpt lat="47.13097800" lon="7.13239700"><ele></ele><time>2014-6-21T23:58:19Z</time></trkpt>
<trkpt lat="47.13088600" lon="7.13258600"><ele></ele><time>2014-6-21T23:58:22Z</time></trkpt>
<trkpt lat="47.13084800" lon="7.13276800"><ele></ele><time>2014-6-21T23:58:25Z</time></trkpt>
<trkpt lat="47.13078600" lon="7.13317400"><ele></ele><time>2014-6-21T23:58:28Z</time></trkpt>
<trkpt lat="47.13072300" lon="7.13358100"><ele></ele><time>2014-6-21T23:58:31Z</time></trkpt>
<trkpt lat="47.13066100" lon="7.13398700"><ele></ele><time>2014-6-21T23:58:34Z</time></trkpt>
<trkpt lat="47.13059900" lon="7.13439300"><ele></ele><time>2014-6-21T23:58:37Z</time></trkpt>
<trkpt lat="47.13053600" lon="7.13480000"><ele></ele><time>2014-6-21T23:58:40Z</time></trkpt>
<trkpt lat="47.13047400" lon="7.13520600"><ele></ele><time>2014-6-21T23:58:43Z</time></trkpt>
<trkpt lat="47.13058500" lon="7.13542300"><ele></ele><time>2014-6-21T23:58:46Z</time></trkpt>
<trkpt lat="47.13063000" lon="7.13544000"><ele></ele><time>2014-6-21T23:58:49Z</time></trkpt>
<trkpt lat="47.13068400" lon="7.13549200"><ele></ele><time>2014-6-21T23:58:52Z</time></trkpt>
<trkpt lat="47.13076400" lon="7.13557500"><ele></ele><time>2014-6-21T23:58:55Z</time></trkpt>
<trkpt lat="47.13084000" lon="7.13568800"><ele></ele><time>2014-6-21T23:58:58Z</time></trkpt>
<trkpt lat="47.13094300" lon="7.13586800"><ele></ele><time>2014-6-21T23:59:1Z</time></trkpt>
<trkpt lat="47.13103900" lon="7.13595700"><ele></ele><time>2014-6-21T23:59:4Z</time></trkpt>
<trkpt lat="47.13118400" lon="7.13599600"><ele></ele><time>2014-6-21T23:59:7Z</time></trkpt>
<trkpt lat="47.13130600" lon="7.13601800"><ele></ele><time>2014-6-21T23:59:10Z</time></trkpt>
<trkpt lat="47.13140900" lon="7.13611800"><ele></ele><time>2014-6-21T23:59:13Z</time></trkpt>
<trkpt lat="47.13153800" lon="7.13633300"><ele></ele><time>2014-6-21T23:59:16Z</time></trkpt>
<trkpt lat="47.13160300" lon="7.13666400"><ele></ele><time>2014-6-21T23:59:19Z</time></trkpt>
<trkpt lat="47.13167600" lon="7.13696700"><ele></ele><time>2014-6-21T23:59:22Z</time></trkpt>
<trkpt lat="47.13178600" lon="7.13724400"><ele></ele><time>2014-6-21T23:59:25Z</time></trkpt>
<trkpt lat="47.13187800" lon="7.13744300"><ele></ele><time>2014-6-21T23:59:28Z</time></trkpt>
<trkpt lat="47.13192400" lon="7.13762600"><ele></ele><time>2014-6-21T23:59:31Z</time></trkpt>
<trkpt lat="47.13200800" lon="7.13788700"><ele></ele><time>2014-6-21T23:59:34Z</time></trkpt>
<trkpt lat="47.13205700" lon="7.13809200"><ele></ele><time>2014-6-21T23:59:37Z</time></trkpt>
<trkpt lat="47.13212600" lon="7.13833200"><ele></ele><time>2014-6-21T23:59:40Z</time></trkpt>
<trkpt lat="47.13218700" lon="7.13856300"><ele></ele><time>2014-6-21T23:59:43Z</time></trkpt>
<trkpt lat="47.13225700" lon="7.13892900"><ele></ele><time>2014-6-21T23:59:46Z</time></trkpt>
<trkpt lat="47.13232800" lon="7.13929600"><ele></ele><time>2014-6-21T23:59:49Z</time></trkpt>
<trkpt lat="47.13232800" lon="7.13969400"><ele></ele><time>2014-6-21T23:59:52Z</time></trkpt>
<trkpt lat="47.13236200" lon="7.13994000"><ele></ele><time>2014-6-21T23:59:55Z</time></trkpt>
<trkpt lat="47.13242300" lon="7.14028600"><ele></ele><time>2014-6-21T23:59:58Z</time></trkpt>
<trkpt lat="47.13248400" lon="7.14060100"><ele></ele><time>2014-6-22T0:0:1Z</time></trkpt>
<trkpt lat="47.13249200" lon="7.14085100"><ele></ele><time>2014-6-22T0:0:4Z</time></trkpt>
<trkpt lat="47.13249600" lon="7.14101600"><ele></ele><time>2014-6-22T0:0:7Z</time></trkpt>
<trkpt lat="47.13250000" lon="7.14118100"><ele></ele><time>2014-6-22T0:0:10Z</time></trkpt>
<trkpt lat="47.13250400" lon="7.14134500"><ele></ele><time>2014-6-22T0:0:13Z</time></trkpt>
<trkpt lat="47.13250700" lon="7.14138600"><ele></ele><time>2014-6-22T0:0:16Z</time></trkpt>
<trkpt lat="47.13254200" lon="7.14176100"><ele></ele><time>2014-6-22T0:0:19Z</time></trkpt>
<trkpt lat="47.13256500" lon="7.14187200"><ele></ele><time>2014-6-22T0:0:22Z</time></trkpt>
<trkpt lat="47.13258700" lon="7.14194700"><ele></ele><time>2014-6-22T0:0:25Z</time></trkpt>
<trkpt lat="47.13266000" lon="7.14214600"><ele></ele><time>2014-6-22T0:0:28Z</time></trkpt>
<trkpt lat="47.13276700" lon="7.14249700"><ele></ele><time>2014-6-22T0:0:31Z</time></trkpt>
<trkpt lat="47.13284700" lon="7.14284500"><ele></ele><time>2014-6-22T0:0:34Z</time></trkpt>
<trkpt lat="47.13287700" lon="7.14321200"><ele></ele><time>2014-6-22T0:0:37Z</time></trkpt>
<trkpt lat="47.13287000" lon="7.14355100"><ele></ele><time>2014-6-22T0:0:40Z</time></trkpt>
<trkpt lat="47.13288100" lon="7.14383400"><ele></ele><time>2014-6-22T0:0:43Z</time></trkpt>
<trkpt lat="47.13289300" lon="7.14411800"><ele></ele><time>2014-6-22T0:0:46Z</time></trkpt>
<trkpt lat="47.13293800" lon="7.14439100"><ele></ele><time>2014-6-22T0:0:49Z</time></trkpt>
<trkpt lat="47.13293800" lon="7.14472600"><ele></ele><time>2014-6-22T0:0:52Z</time></trkpt>
<trkpt lat="47.13291900" lon="7.14507200"><ele></ele><time>2014-6-22T0:0:55Z</time></trkpt>
<trkpt lat="47.13290800" lon="7.14519600"><ele></ele><time>2014-6-22T0:0:58Z</time></trkpt>
<trkpt lat="47.13293800" lon="7.14557700"><ele></ele><time>2014-6-22T0:1:1Z</time></trkpt>
<trkpt lat="47.13295700" lon="7.14606700"><ele></ele><time>2014-6-22T0:1:4Z</time></trkpt>
<trkpt lat="47.13298000" lon="7.14644900"><ele></ele><time>2014-6-22T0:1:7Z</time></trkpt>
<trkpt lat="47.13309100" lon="7.14709800"><ele></ele><time>2014-6-22T0:1:10Z</time></trkpt>
<trkpt lat="47.13317500" lon="7.14730200"><ele></ele><time>2014-6-22T0:1:13Z</time></trkpt>
<trkpt lat="47.13336900" lon="7.14766600"><ele></ele><time>2014-6-22T0:1:16Z</time></trkpt>
<trkpt lat="47.13357900" lon="7.14784600"><ele></ele><time>2014-6-22T0:1:19Z</time></trkpt>
<trkpt lat="47.13380400" lon="7.14791300"><ele></ele><time>2014-6-22T0:1:22Z</time></trkpt>
<trkpt lat="47.13389600" lon="7.14791400"><ele></ele><time>2014-6-22T0:1:25Z</time></trkpt>
<trkpt lat="47.13398700" lon="7.14810800"><ele></ele><time>2014-6-22T0:1:28Z</time></trkpt>
<trkpt lat="47.13411700" lon="7.14831400"><ele></ele><time>2014-6-22T0:1:31Z</time></trkpt>
<trkpt lat="47.13425100" lon="7.14846200"><ele></ele><time>2014-6-22T0:1:34Z</time></trkpt>
<trkpt lat="47.13442200" lon="7.14861100"><ele></ele><time>2014-6-22T0:1:37Z</time></trkpt>
<trkpt lat="47.13461700" lon="7.14876400"><ele></ele><time>2014-6-22T0:1:40Z</time></trkpt>
<trkpt lat="47.13476600" lon="7.14884100"><ele></ele><time>2014-6-22T0:1:43Z</time></trkpt>
<trkpt lat="47.13490700" lon="7.14894900"><ele></ele><time>2014-6-22T0:1:46Z</time></trkpt>
<trkpt lat="47.13510900" lon="7.14909500"><ele></ele><time>2014-6-22T0:1:49Z</time></trkpt>
<trkpt lat="47.13514300" lon="7.14914700"><ele></ele><time>2014-6-22T0:1:52Z</time></trkpt>
<trkpt lat="47.13507800" lon="7.14912100"><ele></ele><time>2014-6-22T0:1:55Z</time></trkpt>
<trkpt lat="47.13501400" lon="7.14909400"><ele></ele><time>2014-6-22T0:1:58Z</time></trkpt>
<trkpt lat="47.13494900" lon="7.14906800"><ele></ele><time>2014-6-22T0:2:1Z</time></trkpt>
<trkpt lat="47.13494900" lon="7.14906800"><ele></ele><time>2014-6-22T0:2:4Z</time></trkpt>
<trkpt lat="47.13494900" lon="7.14906800"><ele></ele><time>2014-6-22T0:2:7Z</time></trkpt>
<trkpt lat="47.13507600" lon="7.14923100"><ele></ele><time>2014-6-22T0:2:10Z</time></trkpt>
<trkpt lat="47.13520400" lon="7.14939400"><ele></ele><time>2014-6-22T0:2:13Z</time></trkpt>
<trkpt lat="47.13533100" lon="7.14955700"><ele></ele><time>2014-6-22T0:2:16Z</time></trkpt>
<trkpt lat="47.13545900" lon="7.14972000"><ele></ele><time>2014-6-22T0:2:19Z</time></trkpt>
<trkpt lat="47.13558600" lon="7.14988200"><ele></ele><time>2014-6-22T0:2:22Z</time></trkpt>
<trkpt lat="47.13571400" lon="7.15004500"><ele></ele><time>2014-6-22T0:2:25Z</time></trkpt>
<trkpt lat="47.13584100" lon="7.15020800"><ele></ele><time>2014-6-22T0:2:28Z</time></trkpt>
<trkpt lat="47.13600200" lon="7.15034700"><ele></ele><time>2014-6-22T0:2:31Z</time></trkpt>
<trkpt lat="47.13615000" lon="7.15049600"><ele></ele><time>2014-6-22T0:2:34Z</time></trkpt>
<trkpt lat="47.13618500" lon="7.15070700"><ele></ele><time>2014-6-22T0:2:37Z</time></trkpt>
<trkpt lat="47.13600900" lon="7.15130500"><ele></ele><time>2014-6-22T0:2:40Z</time></trkpt>
<trkpt lat="47.13595200" lon="7.15158900"><ele></ele><time>2014-6-22T0:2:43Z</time></trkpt>
<trkpt lat="47.13594300" lon="7.15164900"><ele></ele><time>2014-6-22T0:2:46Z</time></trkpt>
<trkpt lat="47.13593500" lon="7.15171000"><ele></ele><time>2014-6-22T0:2:49Z</time></trkpt>
<trkpt lat="47.13592600" lon="7.15177100"><ele></ele><time>2014-6-22T0:2:52Z</time></trkpt>
<trkpt lat="47.13591800" lon="7.15183100"><ele></ele><time>2014-6-22T0:2:55Z</time></trkpt>
<trkpt lat="47.13588300" lon="7.15182700"><ele></ele><time>2014-6-22T0:2:58Z</time></trkpt>
<trkpt lat="47.13578400" lon="7.15166100"><ele></ele><time>2014-6-22T0:3:1Z</time></trkpt>
<trkpt lat="47.13568500" lon="7.15149600"><ele></ele><time>2014-6-22T0:3:4Z</time></trkpt>
<trkpt lat="47.13558600" lon="7.15133000"><ele></ele><time>2014-6-22T0:3:7Z</time></trkpt>
<trkpt lat="47.13548700" lon="7.15116500"><ele></ele><time>2014-6-22T0:3:10Z</time></trkpt>
<trkpt lat="47.13501400" lon="7.15130200"><ele></ele><time>2014-6-22T0:3:13Z</time></trkpt>
<trkpt lat="47.13481100" lon="7.15141100"><ele></ele><time>2014-6-22T0:3:16Z</time></trkpt>
<trkpt lat="47.13428900" lon="7.15147400"><ele></ele><time>2014-6-22T0:3:19Z</time></trkpt>
<trkpt lat="47.13387700" lon="7.15131900"><ele></ele><time>2014-6-22T0:3:22Z</time></trkpt>
<trkpt lat="47.13380100" lon="7.15127800"><ele></ele><time>2014-6-22T0:3:25Z</time></trkpt>
<trkpt lat="47.13327000" lon="7.15106400"><ele></ele><time>2014-6-22T0:3:28Z</time></trkpt>
<trkpt lat="47.13311000" lon="7.15100700"><ele></ele><time>2014-6-22T0:3:31Z</time></trkpt>
<trkpt lat="47.13289600" lon="7.15059300"><ele></ele><time>2014-6-22T0:3:34Z</time></trkpt>
<trkpt lat="47.13268100" lon="7.15017800"><ele></ele><time>2014-6-22T0:3:37Z</time></trkpt>
<trkpt lat="47.13246700" lon="7.14976400"><ele></ele><time>2014-6-22T0:3:40Z</time></trkpt>
<trkpt lat="47.13225300" lon="7.14935000"><ele></ele><time>2014-6-22T0:3:43Z</time></trkpt>
<trkpt lat="47.13203800" lon="7.14893600"><ele></ele><time>2014-6-22T0:3:46Z</time></trkpt>
<trkpt lat="47.13174400" lon="7.14789000"><ele></ele><time>2014-6-22T0:3:49Z</time></trkpt>
<trkpt lat="47.13145100" lon="7.14684500"><ele></ele><time>2014-6-22T0:3:52Z</time></trkpt>
<trkpt lat="47.13131700" lon="7.14607200"><ele></ele><time>2014-6-22T0:3:55Z</time></trkpt>
<trkpt lat="47.13110000" lon="7.14521600"><ele></ele><time>2014-6-22T0:3:58Z</time></trkpt>
<trkpt lat="47.13084000" lon="7.14422500"><ele></ele><time>2014-6-22T0:4:1Z</time></trkpt>
<trkpt lat="47.13052400" lon="7.14315800"><ele></ele><time>2014-6-22T0:4:4Z</time></trkpt>
<trkpt lat="47.13020700" lon="7.14209200"><ele></ele><time>2014-6-22T0:4:7Z</time></trkpt>
<trkpt lat="47.13010400" lon="7.14180300"><ele></ele><time>2014-6-22T0:4:10Z</time></trkpt>
<trkpt lat="47.12980300" lon="7.14136300"><ele></ele><time>2014-6-22T0:4:13Z</time></trkpt>
<trkpt lat="47.12947800" lon="7.14044800"><ele></ele><time>2014-6-22T0:4:16Z</time></trkpt>
<trkpt lat="47.12915600" lon="7.13975600"><ele></ele><time>2014-6-22T0:4:19Z</time></trkpt>
<trkpt lat="47.12883300" lon="7.13906500"><ele></ele><time>2014-6-22T0:4:22Z</time></trkpt>
<trkpt lat="47.12851000" lon="7.13837400"><ele></ele><time>2014-6-22T0:4:25Z</time></trkpt>
<trkpt lat="47.12818700" lon="7.13768200"><ele></ele><time>2014-6-22T0:4:28Z</time></trkpt>
<trkpt lat="47.12786400" lon="7.13699100"><ele></ele><time>2014-6-22T0:4:31Z</time></trkpt>
<trkpt lat="47.12754200" lon="7.13629900"><ele></ele><time>2014-6-22T0:4:34Z</time></trkpt>
<trkpt lat="47.12721900" lon="7.13560800"><ele></ele><time>2014-6-22T0:4:37Z</time></trkpt>
<trkpt lat="47.12689600" lon="7.13491700"><ele></ele><time>2014-6-22T0:4:40Z</time></trkpt>
<trkpt lat="47.12682300" lon="7.13477100"><ele></ele><time>2014-6-22T0:4:43Z</time></trkpt>
<trkpt lat="47.12675000" lon="7.13462600"><ele></ele><time>2014-6-22T0:4:46Z</time></trkpt>
<trkpt lat="47.12667700" lon="7.13448000"><ele></ele><time>2014-6-22T0:4:49Z</time></trkpt>
<trkpt lat="47.12660400" lon="7.13433500"><ele></ele><time>2014-6-22T0:4:52Z</time></trkpt>
<trkpt lat="47.12653100" lon="7.13419000"><ele></ele><time>2014-6-22T0:4:55Z</time></trkpt>
<trkpt lat="47.12645800" lon="7.13404400"><ele></ele><time>2014-6-22T0:4:58Z</time></trkpt>
<trkpt lat="47.12638500" lon="7.13389900"><ele></ele><time>2014-6-22T0:5:1Z</time></trkpt>
<trkpt lat="47.12637700" lon="7.13387800"><ele></ele><time>2014-6-22T0:5:4Z</time></trkpt>
<trkpt lat="47.12623600" lon="7.13349200"><ele></ele><time>2014-6-22T0:5:7Z</time></trkpt>
<trkpt lat="47.12620500" lon="7.13336300"><ele></ele><time>2014-6-22T0:5:10Z</time></trkpt>
<trkpt lat="47.12612500" lon="7.13318700"><ele></ele><time>2014-6-22T0:5:13Z</time></trkpt>
<trkpt lat="47.12597300" lon="7.13289500"><ele></ele><time>2014-6-22T0:5:16Z</time></trkpt>
<trkpt lat="47.12588500" lon="7.13267200"><ele></ele><time>2014-6-22T0:5:19Z</time></trkpt>
<trkpt lat="47.12581500" lon="7.13252900"><ele></ele><time>2014-6-22T0:5:22Z</time></trkpt>
<trkpt lat="47.12574600" lon="7.13238700"><ele></ele><time>2014-6-22T0:5:25Z</time></trkpt>
<trkpt lat="47.12567600" lon="7.13224400"><ele></ele><time>2014-6-22T0:5:28Z</time></trkpt>
<trkpt lat="47.12560700" lon="7.13210200"><ele></ele><time>2014-6-22T0:5:31Z</time></trkpt>
<trkpt lat="47.12556800" lon="7.13202400"><ele></ele><time>2014-6-22T0:5:34Z</time></trkpt>
<trkpt lat="47.12554200" lon="7.13197900"><ele></ele><time>2014-6-22T0:5:37Z</time></trkpt>
<trkpt lat="47.12536600" lon="7.13154800"><ele></ele><time>2014-6-22T0:5:40Z</time></trkpt>
<trkpt lat="47.12509900" lon="7.13092000"><ele></ele><time>2014-6-22T0:5:43Z</time></trkpt>
<trkpt lat="47.12496400" lon="7.13055300"><ele></ele><time>2014-6-22T0:5:46Z</time></trkpt>
<trkpt lat="47.12482800" lon="7.13018500"><ele></ele><time>2014-6-22T0:5:49Z</time></trkpt>
<trkpt lat="47.12442400" lon="7.12910300"><ele></ele><time>2014-6-22T0:5:52Z</time></trkpt>
<trkpt lat="47.12439000" lon="7.12902300"><ele></ele><time>2014-6-22T0:5:55Z</time></trkpt>
<trkpt lat="47.12399700" lon="7.12843300"><ele></ele><time>2014-6-22T0:5:58Z</time></trkpt>
<trkpt lat="47.12384400" lon="7.12812900"><ele></ele><time>2014-6-22T0:6:1Z</time></trkpt>
<trkpt lat="47.12369200" lon="7.12782600"><ele></ele><time>2014-6-22T0:6:4Z</time></trkpt>
<trkpt lat="47.12355400" lon="7.12744600"><ele></ele><time>2014-6-22T0:6:7Z</time></trkpt>
<trkpt lat="47.12339400" lon="7.12678000"><ele></ele><time>2014-6-22T0:6:10Z</time></trkpt>
<trkpt lat="47.12326000" lon="7.12598700"><ele></ele><time>2014-6-22T0:6:13Z</time></trkpt>
<trkpt lat="47.12287500" lon="7.12491900"><ele></ele><time>2014-6-22T0:6:16Z</time></trkpt>
<trkpt lat="47.12271500" lon="7.12427900"><ele></ele><time>2014-6-22T0:6:19Z</time></trkpt>
<trkpt lat="47.12248200" lon="7.12357900"><ele></ele><time>2014-6-22T0:6:22Z</time></trkpt>
<trkpt lat="47.12236400" lon="7.12300400"><ele></ele><time>2014-6-22T0:6:25Z</time></trkpt>
<trkpt lat="47.12233700" lon="7.12245700"><ele></ele><time>2014-6-22T0:6:28Z</time></trkpt>
<trkpt lat="47.12237200" lon="7.12229400"><ele></ele><time>2014-6-22T0:6:31Z</time></trkpt>
<trkpt lat="47.12240600" lon="7.12213200"><ele></ele><time>2014-6-22T0:6:34Z</time></trkpt>
<trkpt lat="47.12241400" lon="7.12252100"><ele></ele><time>2014-6-22T0:6:37Z</time></trkpt>
<trkpt lat="47.12242300" lon="7.12290900"><ele></ele><time>2014-6-22T0:6:40Z</time></trkpt>
<trkpt lat="47.12243100" lon="7.12329700"><ele></ele><time>2014-6-22T0:6:43Z</time></trkpt>
<trkpt lat="47.12244000" lon="7.12368500"><ele></ele><time>2014-6-22T0:6:46Z</time></trkpt>
<trkpt lat="47.12244800" lon="7.12407400"><ele></ele><time>2014-6-22T0:6:49Z</time></trkpt>
<trkpt lat="47.12229200" lon="7.12390100"><ele></ele><time>2014-6-22T0:6:52Z</time></trkpt>
<trkpt lat="47.12218100" lon="7.12373600"><ele></ele><time>2014-6-22T0:6:55Z</time></trkpt>
<trkpt lat="47.12190100" lon="7.12303800"><ele></ele><time>2014-6-22T0:6:58Z</time></trkpt>
<trkpt lat="47.12162000" lon="7.12234000"><ele></ele><time>2014-6-22T0:7:1Z</time></trkpt>
<trkpt lat="47.12134000" lon="7.12164200"><ele></ele><time>2014-6-22T0:7:4Z</time></trkpt>
<trkpt lat="47.12105900" lon="7.12094400"><ele></ele><time>2014-6-22T0:7:7Z</time></trkpt>
<trkpt lat="47.12077900" lon="7.12024600"><ele></ele><time>2014-6-22T0:7:10Z</time></trkpt>
<trkpt lat="47.12049900" lon="7.11954700"><ele></ele><time>2014-6-22T0:7:13Z</time></trkpt>
<trkpt lat="47.12013400" lon="7.11845800"><ele></ele><time>2014-6-22T0:7:16Z</time></trkpt>
<trkpt lat="47.11977000" lon="7.11736800"><ele></ele><time>2014-6-22T0:7:19Z</time></trkpt>
<trkpt lat="47.11940600" lon="7.11627800"><ele></ele><time>2014-6-22T0:7:22Z</time></trkpt>
<trkpt lat="47.11904100" lon="7.11518800"><ele></ele><time>2014-6-22T0:7:25Z</time></trkpt>
<trkpt lat="47.11896700" lon="7.11470700"><ele></ele><time>2014-6-22T0:7:28Z</time></trkpt>
<trkpt lat="47.11889300" lon="7.11422500"><ele></ele><time>2014-6-22T0:7:31Z</time></trkpt>
<trkpt lat="47.11888500" lon="7.11400900"><ele></ele><time>2014-6-22T0:7:34Z</time></trkpt>
<trkpt lat="47.11887600" lon="7.11379300"><ele></ele><time>2014-6-22T0:7:37Z</time></trkpt>
<trkpt lat="47.11886800" lon="7.11357800"><ele></ele><time>2014-6-22T0:7:40Z</time></trkpt>
<trkpt lat="47.11886000" lon="7.11336200"><ele></ele><time>2014-6-22T0:7:43Z</time></trkpt>
<trkpt lat="47.11885200" lon="7.11314600"><ele></ele><time>2014-6-22T0:7:46Z</time></trkpt>
<trkpt lat="47.11884400" lon="7.11293000"><ele></ele><time>2014-6-22T0:7:49Z</time></trkpt>
<trkpt lat="47.11883600" lon="7.11271500"><ele></ele><time>2014-6-22T0:7:52Z</time></trkpt>
<trkpt lat="47.11882800" lon="7.11249900"><ele></ele><time>2014-6-22T0:7:55Z</time></trkpt>
<trkpt lat="47.11882800" lon="7.11249800"><ele></ele><time>2014-6-22T0:7:58Z</time></trkpt>
<trkpt lat="47.11882800" lon="7.11249600"><ele></ele><time>2014-6-22T0:8:1Z</time></trkpt>
<trkpt lat="47.11882800" lon="7.11249600"><ele></ele><time>2014-6-22T0:8:4Z</time></trkpt>
<trkpt lat="47.11881600" lon="7.11246900"><ele></ele><time>2014-6-22T0:8:7Z</time></trkpt>
<trkpt lat="47.11881400" lon="7.11245900"><ele></ele><time>2014-6-22T0:8:10Z</time></trkpt>
<trkpt lat="47.11881300" lon="7.11244900"><ele></ele><time>2014-6-22T0:8:13Z</time></trkpt>
<trkpt lat="47.11873200" lon="7.11215600"><ele></ele><time>2014-6-22T0:8:16Z</time></trkpt>
<trkpt lat="47.11865100" lon="7.11186200"><ele></ele><time>2014-6-22T0:8:19Z</time></trkpt>
<trkpt lat="47.11857100" lon="7.11156900"><ele></ele><time>2014-6-22T0:8:22Z</time></trkpt>
<trkpt lat="47.11849000" lon="7.11127500"><ele></ele><time>2014-6-22T0:8:25Z</time></trkpt>
<trkpt lat="47.11841000" lon="7.11098100"><ele></ele><time>2014-6-22T0:8:28Z</time></trkpt>
<trkpt lat="47.11832900" lon="7.11068800"><ele></ele><time>2014-6-22T0:8:31Z</time></trkpt>
<trkpt lat="47.11824800" lon="7.11039400"><ele></ele><time>2014-6-22T0:8:34Z</time></trkpt>
<trkpt lat="47.11816800" lon="7.11010100"><ele></ele><time>2014-6-22T0:8:37Z</time></trkpt>
<trkpt lat="47.11811400" lon="7.11004300"><ele></ele><time>2014-6-22T0:8:40Z</time></trkpt>
<trkpt lat="47.11785100" lon="7.10975700"><ele></ele><time>2014-6-22T0:8:43Z</time></trkpt>
<trkpt lat="47.11758800" lon="7.10947100"><ele></ele><time>2014-6-22T0:8:46Z</time></trkpt>
<trkpt lat="47.11752700" lon="7.10939200"><ele></ele><time>2014-6-22T0:8:49Z</time></trkpt>
<trkpt lat="47.11729700" lon="7.10922600"><ele></ele><time>2014-6-22T0:8:52Z</time></trkpt>
<trkpt lat="47.11706700" lon="7.10906000"><ele></ele><time>2014-6-22T0:8:55Z</time></trkpt>
<trkpt lat="47.11683700" lon="7.10889500"><ele></ele><time>2014-6-22T0:8:58Z</time></trkpt>
<trkpt lat="47.11677600" lon="7.10891300"><ele></ele><time>2014-6-22T0:9:1Z</time></trkpt>
<trkpt lat="47.11673300" lon="7.10899400"><ele></ele><time>2014-6-22T0:9:4Z</time></trkpt>
<trkpt lat="47.11669000" lon="7.10907500"><ele></ele><time>2014-6-22T0:9:7Z</time></trkpt>
<trkpt lat="47.11664700" lon="7.10915600"><ele></ele><time>2014-6-22T0:9:10Z</time></trkpt>
<trkpt lat="47.11660400" lon="7.10923700"><ele></ele><time>2014-6-22T0:9:13Z</time></trkpt>
<trkpt lat="47.11656100" lon="7.10931800"><ele></ele><time>2014-6-22T0:9:16Z</time></trkpt>
<trkpt lat="47.11651800" lon="7.10939900"><ele></ele><time>2014-6-22T0:9:19Z</time></trkpt>
<trkpt lat="47.11647500" lon="7.10948000"><ele></ele><time>2014-6-22T0:9:22Z</time></trkpt>
<trkpt lat="47.11643200" lon="7.10956100"><ele></ele><time>2014-6-22T0:9:25Z</time></trkpt>
<trkpt lat="47.11632000" lon="7.10983300"><ele></ele><time>2014-6-22T0:9:28Z</time></trkpt>
<trkpt lat="47.11620700" lon="7.11010400"><ele></ele><time>2014-6-22T0:9:31Z</time></trkpt>
<trkpt lat="47.11586000" lon="7.10978400"><ele></ele><time>2014-6-22T0:9:34Z</time></trkpt>
<trkpt lat="47.11566200" lon="7.10951000"><ele></ele><time>2014-6-22T0:9:37Z</time></trkpt>
<trkpt lat="47.11559300" lon="7.10943300"><ele></ele><time>2014-6-22T0:9:40Z</time></trkpt>
<trkpt lat="47.11557000" lon="7.10942400"><ele></ele><time>2014-6-22T0:9:43Z</time></trkpt>
<trkpt lat="47.11544800" lon="7.10965400"><ele></ele><time>2014-6-22T0:9:46Z</time></trkpt>
<trkpt lat="47.11509700" lon="7.11032600"><ele></ele><time>2014-6-22T0:9:49Z</time></trkpt>
<trkpt lat="47.11473600" lon="7.11147400"><ele></ele><time>2014-6-22T0:9:52Z</time></trkpt>
<trkpt lat="47.11437500" lon="7.11262200"><ele></ele><time>2014-6-22T0:9:55Z</time></trkpt>
<trkpt lat="47.11401400" lon="7.11377000"><ele></ele><time>2014-6-22T0:9:58Z</time></trkpt>
<trkpt lat="47.11393400" lon="7.11485500"><ele></ele><time>2014-6-22T0:10:1Z</time></trkpt>
<trkpt lat="47.11378900" lon="7.11502100"><ele></ele><time>2014-6-22T0:10:4Z</time></trkpt>
<trkpt lat="47.11364500" lon="7.11518600"><ele></ele><time>2014-6-22T0:10:7Z</time></trkpt>
<trkpt lat="47.11350100" lon="7.11535100"><ele></ele><time>2014-6-22T0:10:10Z</time></trkpt>
<trkpt lat="47.11335700" lon="7.11551700"><ele></ele><time>2014-6-22T0:10:13Z</time></trkpt>
<trkpt lat="47.11321300" lon="7.11568200"><ele></ele><time>2014-6-22T0:10:16Z</time></trkpt>
<trkpt lat="47.11321500" lon="7.11567100"><ele></ele><time>2014-6-22T0:10:19Z</time></trkpt>
<trkpt lat="47.11321800" lon="7.11566000"><ele></ele><time>2014-6-22T0:10:22Z</time></trkpt>
<trkpt lat="47.11322100" lon="7.11564900"><ele></ele><time>2014-6-22T0:10:25Z</time></trkpt>
<trkpt lat="47.11322400" lon="7.11563800"><ele></ele><time>2014-6-22T0:10:28Z</time></trkpt>
<trkpt lat="47.11320100" lon="7.11558700"><ele></ele><time>2014-6-22T0:10:31Z</time></trkpt>
<trkpt lat="47.11306800" lon="7.11524300"><ele></ele><time>2014-6-22T0:10:34Z</time></trkpt>
<trkpt lat="47.11291500" lon="7.11471000"><ele></ele><time>2014-6-22T0:10:37Z</time></trkpt>
<trkpt lat="47.11283900" lon="7.11424100"><ele></ele><time>2014-6-22T0:10:40Z</time></trkpt>
<trkpt lat="47.11274000" lon="7.11348600"><ele></ele><time>2014-6-22T0:10:43Z</time></trkpt>
<trkpt lat="47.11246900" lon="7.11285400"><ele></ele><time>2014-6-22T0:10:46Z</time></trkpt>
<trkpt lat="47.11233100" lon="7.11255700"><ele></ele><time>2014-6-22T0:10:49Z</time></trkpt>
<trkpt lat="47.11211800" lon="7.11207000"><ele></ele><time>2014-6-22T0:10:52Z</time></trkpt>
<trkpt lat="47.11179700" lon="7.11146300"><ele></ele><time>2014-6-22T0:10:55Z</time></trkpt>
<trkpt lat="47.11160700" lon="7.11115400"><ele></ele><time>2014-6-22T0:10:58Z</time></trkpt>
<trkpt lat="47.11130500" lon="7.11073600"><ele></ele><time>2014-6-22T0:11:1Z</time></trkpt>
<trkpt lat="47.11099600" lon="7.11013900"><ele></ele><time>2014-6-22T0:11:4Z</time></trkpt>
<trkpt lat="47.11076400" lon="7.10938400"><ele></ele><time>2014-6-22T0:11:7Z</time></trkpt>
<trkpt lat="47.11051200" lon="7.10835900"><ele></ele><time>2014-6-22T0:11:10Z</time></trkpt>
<trkpt lat="47.11030200" lon="7.10748700"><ele></ele><time>2014-6-22T0:11:13Z</time></trkpt>
<trkpt lat="47.11005000" lon="7.10631000"><ele></ele><time>2014-6-22T0:11:16Z</time></trkpt>
<trkpt lat="47.10987900" lon="7.10551400"><ele></ele><time>2014-6-22T0:11:19Z</time></trkpt>
<trkpt lat="47.10978300" lon="7.10466600"><ele></ele><time>2014-6-22T0:11:22Z</time></trkpt>
<trkpt lat="47.10970300" lon="7.10355300"><ele></ele><time>2014-6-22T0:11:25Z</time></trkpt>
<trkpt lat="47.10966100" lon="7.10244700"><ele></ele><time>2014-6-22T0:11:28Z</time></trkpt>
<trkpt lat="47.10976400" lon="7.10125400"><ele></ele><time>2014-6-22T0:11:31Z</time></trkpt>
<trkpt lat="47.10982500" lon="7.10029600"><ele></ele><time>2014-6-22T0:11:34Z</time></trkpt>
<trkpt lat="47.10980600" lon="7.09922500"><ele></ele><time>2014-6-22T0:11:37Z</time></trkpt>
<trkpt lat="47.10982500" lon="7.09831500"><ele></ele><time>2014-6-22T0:11:40Z</time></trkpt>
<trkpt lat="47.10998200" lon="7.09741700"><ele></ele><time>2014-6-22T0:11:43Z</time></trkpt>
<trkpt lat="47.10997400" lon="7.09675800"><ele></ele><time>2014-6-22T0:11:46Z</time></trkpt>
<trkpt lat="47.10984400" lon="7.09584800"><ele></ele><time>2014-6-22T0:11:49Z</time></trkpt>
<trkpt lat="47.10965700" lon="7.09458900"><ele></ele><time>2014-6-22T0:11:52Z</time></trkpt>
<trkpt lat="47.10948600" lon="7.09342800"><ele></ele><time>2014-6-22T0:11:55Z</time></trkpt>
<trkpt lat="47.10945900" lon="7.09266500"><ele></ele><time>2014-6-22T0:11:58Z</time></trkpt>
<trkpt lat="47.10957700" lon="7.09171700"><ele></ele><time>2014-6-22T0:12:1Z</time></trkpt>
<trkpt lat="47.10971800" lon="7.09054700"><ele></ele><time>2014-6-22T0:12:4Z</time></trkpt>
<trkpt lat="47.10989800" lon="7.08906800"><ele></ele><time>2014-6-22T0:12:7Z</time></trkpt>
<trkpt lat="47.11005800" lon="7.08783800"><ele></ele><time>2014-6-22T0:12:10Z</time></trkpt>
<trkpt lat="47.11024900" lon="7.08696800"><ele></ele><time>2014-6-22T0:12:13Z</time></trkpt>
<trkpt lat="47.11045800" lon="7.08659100"><ele></ele><time>2014-6-22T0:12:16Z</time></trkpt>
<trkpt lat="47.11082100" lon="7.08623700"><ele></ele><time>2014-6-22T0:12:19Z</time></trkpt>
<trkpt lat="47.11127100" lon="7.08587200"><ele></ele><time>2014-6-22T0:12:22Z</time></trkpt>
<trkpt lat="47.11172500" lon="7.08563300"><ele></ele><time>2014-6-22T0:12:25Z</time></trkpt>
<trkpt lat="47.11209100" lon="7.08567200"><ele></ele><time>2014-6-22T0:12:28Z</time></trkpt>
<trkpt lat="47.11238500" lon="7.08573600"><ele></ele><time>2014-6-22T0:12:31Z</time></trkpt>
<trkpt lat="47.11254100" lon="7.08572200"><ele></ele><time>2014-6-22T0:12:34Z</time></trkpt>
<trkpt lat="47.11259100" lon="7.08570400"><ele></ele><time>2014-6-22T0:12:37Z</time></trkpt>
<trkpt lat="47.11268600" lon="7.08563900"><ele></ele><time>2014-6-22T0:12:40Z</time></trkpt>
<trkpt lat="47.11276600" lon="7.08554600"><ele></ele><time>2014-6-22T0:12:43Z</time></trkpt>
<trkpt lat="47.11282700" lon="7.08542000"><ele></ele><time>2014-6-22T0:12:46Z</time></trkpt>
<trkpt lat="47.11286500" lon="7.08527100"><ele></ele><time>2014-6-22T0:12:49Z</time></trkpt>
<trkpt lat="47.11293000" lon="7.08447100"><ele></ele><time>2014-6-22T0:12:52Z</time></trkpt>
<trkpt lat="47.11299900" lon="7.08423900"><ele></ele><time>2014-6-22T0:12:55Z</time></trkpt>
<trkpt lat="47.11304500" lon="7.08418500"><ele></ele><time>2014-6-22T0:12:58Z</time></trkpt>
<trkpt lat="47.11340000" lon="7.08382600"><ele></ele><time>2014-6-22T0:13:1Z</time></trkpt>
<trkpt lat="47.11344100" lon="7.08375900"><ele></ele><time>2014-6-22T0:13:4Z</time></trkpt>
<trkpt lat="47.11350300" lon="7.08361100"><ele></ele><time>2014-6-22T0:13:7Z</time></trkpt>
<trkpt lat="47.11353300" lon="7.08344500"><ele></ele><time>2014-6-22T0:13:10Z</time></trkpt>
<trkpt lat="47.11352900" lon="7.08327900"><ele></ele><time>2014-6-22T0:13:13Z</time></trkpt>
<trkpt lat="47.11349100" lon="7.08312300"><ele></ele><time>2014-6-22T0:13:16Z</time></trkpt>
<trkpt lat="47.11342600" lon="7.08299200"><ele></ele><time>2014-6-22T0:13:19Z</time></trkpt>
<trkpt lat="47.11309100" lon="7.08259500"><ele></ele><time>2014-6-22T0:13:22Z</time></trkpt>
<trkpt lat="47.11290700" lon="7.08229300"><ele></ele><time>2014-6-22T0:13:25Z</time></trkpt>
<trkpt lat="47.11275900" lon="7.08179800"><ele></ele><time>2014-6-22T0:13:28Z</time></trkpt>
<trkpt lat="47.11286200" lon="7.08155800"><ele></ele><time>2014-6-22T0:13:31Z</time></trkpt>
<trkpt lat="47.11313200" lon="7.08133600"><ele></ele><time>2014-6-22T0:13:34Z</time></trkpt>
<trkpt lat="47.11302600" lon="7.08100900"><ele></ele><time>2014-6-22T0:13:37Z</time></trkpt>
<trkpt lat="47.11276600" lon="7.08065300"><ele></ele><time>2014-6-22T0:13:40Z</time></trkpt>
<trkpt lat="47.11248800" lon="7.08025700"><ele></ele><time>2014-6-22T0:13:43Z</time></trkpt>
<trkpt lat="47.11225100" lon="7.07986200"><ele></ele><time>2014-6-22T0:13:46Z</time></trkpt>
<trkpt lat="47.11204100" lon="7.07937300"><ele></ele><time>2014-6-22T0:13:49Z</time></trkpt>
<trkpt lat="47.11174400" lon="7.07862500"><ele></ele><time>2014-6-22T0:13:52Z</time></trkpt>
<trkpt lat="47.11133600" lon="7.07761300"><ele></ele><time>2014-6-22T0:13:55Z</time></trkpt>
<trkpt lat="47.11128200" lon="7.07747800"><ele></ele><time>2014-6-22T0:13:58Z</time></trkpt>
<trkpt lat="47.11094300" lon="7.07647500"><ele></ele><time>2014-6-22T0:14:1Z</time></trkpt>
<trkpt lat="47.11088600" lon="7.07581400"><ele></ele><time>2014-6-22T0:14:4Z</time></trkpt>
<trkpt lat="47.11087800" lon="7.07564500"><ele></ele><time>2014-6-22T0:14:7Z</time></trkpt>
<trkpt lat="47.11085900" lon="7.07547600"><ele></ele><time>2014-6-22T0:14:10Z</time></trkpt>
<trkpt lat="47.11077900" lon="7.07515800"><ele></ele><time>2014-6-22T0:14:13Z</time></trkpt>
<trkpt lat="47.11063400" lon="7.07490000"><ele></ele><time>2014-6-22T0:14:16Z</time></trkpt>
<trkpt lat="47.11017600" lon="7.07439100"><ele></ele><time>2014-6-22T0:14:19Z</time></trkpt>
<trkpt lat="47.10970300" lon="7.07375300"><ele></ele><time>2014-6-22T0:14:22Z</time></trkpt>
<trkpt lat="47.10938300" lon="7.07300300"><ele></ele><time>2014-6-22T0:14:25Z</time></trkpt>
<trkpt lat="47.10892100" lon="7.07166600"><ele></ele><time>2014-6-22T0:14:28Z</time></trkpt>
<trkpt lat="47.10858200" lon="7.07083300"><ele></ele><time>2014-6-22T0:14:31Z</time></trkpt>
<trkpt lat="47.10818100" lon="7.07021000"><ele></ele><time>2014-6-22T0:14:34Z</time></trkpt>
<trkpt lat="47.10759400" lon="7.06953300"><ele></ele><time>2014-6-22T0:14:37Z</time></trkpt>
<trkpt lat="47.10651800" lon="7.06848900"><ele></ele><time>2014-6-22T0:14:40Z</time></trkpt>
<trkpt lat="47.10571700" lon="7.06762300"><ele></ele><time>2014-6-22T0:14:43Z</time></trkpt>
<trkpt lat="47.10498000" lon="7.06682600"><ele></ele><time>2014-6-22T0:14:46Z</time></trkpt>
<trkpt lat="47.10437800" lon="7.06617700"><ele></ele><time>2014-6-22T0:14:49Z</time></trkpt>
<trkpt lat="47.10345500" lon="7.06519000"><ele></ele><time>2014-6-22T0:14:52Z</time></trkpt>
<trkpt lat="47.10268400" lon="7.06436300"><ele></ele><time>2014-6-22T0:14:55Z</time></trkpt>
<trkpt lat="47.10199700" lon="7.06370000"><ele></ele><time>2014-6-22T0:14:58Z</time></trkpt>
<trkpt lat="47.10116600" lon="7.06310700"><ele></ele><time>2014-6-22T0:15:1Z</time></trkpt>
<trkpt lat="47.10017400" lon="7.06244600"><ele></ele><time>2014-6-22T0:15:4Z</time></trkpt>
<trkpt lat="47.09947200" lon="7.06203600"><ele></ele><time>2014-6-22T0:15:7Z</time></trkpt>
<trkpt lat="47.09890700" lon="7.06179300"><ele></ele><time>2014-6-22T0:15:10Z</time></trkpt>
<trkpt lat="47.09867500" lon="7.06174100"><ele></ele><time>2014-6-22T0:15:13Z</time></trkpt>
<trkpt lat="47.09841900" lon="7.06167700"><ele></ele><time>2014-6-22T0:15:16Z</time></trkpt>
<trkpt lat="47.09832400" lon="7.06156200"><ele></ele><time>2014-6-22T0:15:19Z</time></trkpt>
<trkpt lat="47.09828200" lon="7.06139400"><ele></ele><time>2014-6-22T0:15:22Z</time></trkpt>
<trkpt lat="47.09833100" lon="7.06081800"><ele></ele><time>2014-6-22T0:15:25Z</time></trkpt>
<trkpt lat="47.09838500" lon="7.06006100"><ele></ele><time>2014-6-22T0:15:28Z</time></trkpt>
<trkpt lat="47.09844200" lon="7.05925500"><ele></ele><time>2014-6-22T0:15:31Z</time></trkpt>
<trkpt lat="47.09850300" lon="7.05833500"><ele></ele><time>2014-6-22T0:15:34Z</time></trkpt>
<trkpt lat="47.09854900" lon="7.05752200"><ele></ele><time>2014-6-22T0:15:37Z</time></trkpt>
<trkpt lat="47.09859800" lon="7.05677300"><ele></ele><time>2014-6-22T0:15:40Z</time></trkpt>
<trkpt lat="47.09864400" lon="7.05604700"><ele></ele><time>2014-6-22T0:15:43Z</time></trkpt>
<trkpt lat="47.09868600" lon="7.05547100"><ele></ele><time>2014-6-22T0:15:46Z</time></trkpt>
<trkpt lat="47.09873200" lon="7.05476000"><ele></ele><time>2014-6-22T0:15:49Z</time></trkpt>
<trkpt lat="47.09877400" lon="7.05410500"><ele></ele><time>2014-6-22T0:15:52Z</time></trkpt>
<trkpt lat="47.09880800" lon="7.05343700"><ele></ele><time>2014-6-22T0:15:55Z</time></trkpt>
<trkpt lat="47.09882700" lon="7.05267700"><ele></ele><time>2014-6-22T0:15:58Z</time></trkpt>
<trkpt lat="47.09882700" lon="7.05212000"><ele></ele><time>2014-6-22T0:16:1Z</time></trkpt>
<trkpt lat="47.09878200" lon="7.05155700"><ele></ele><time>2014-6-22T0:16:4Z</time></trkpt>
<trkpt lat="47.09871300" lon="7.05101800"><ele></ele><time>2014-6-22T0:16:7Z</time></trkpt>
<trkpt lat="47.09865200" lon="7.05060400"><ele></ele><time>2014-6-22T0:16:10Z</time></trkpt>
<trkpt lat="47.09853400" lon="7.04999600"><ele></ele><time>2014-6-22T0:16:13Z</time></trkpt>
<trkpt lat="47.09841500" lon="7.04954200"><ele></ele><time>2014-6-22T0:16:16Z</time></trkpt>
<trkpt lat="47.09828600" lon="7.04909500"><ele></ele><time>2014-6-22T0:16:19Z</time></trkpt>
<trkpt lat="47.09812900" lon="7.04865900"><ele></ele><time>2014-6-22T0:16:22Z</time></trkpt>
<trkpt lat="47.09794200" lon="7.04816900"><ele></ele><time>2014-6-22T0:16:25Z</time></trkpt>
<trkpt lat="47.09778600" lon="7.04778900"><ele></ele><time>2014-6-22T0:16:28Z</time></trkpt>
<trkpt lat="47.09754900" lon="7.04719000"><ele></ele><time>2014-6-22T0:16:31Z</time></trkpt>
<trkpt lat="47.09736600" lon="7.04672200"><ele></ele><time>2014-6-22T0:16:34Z</time></trkpt>
<trkpt lat="47.09706100" lon="7.04608400"><ele></ele><time>2014-6-22T0:16:37Z</time></trkpt>
<trkpt lat="47.09678600" lon="7.04560000"><ele></ele><time>2014-6-22T0:16:40Z</time></trkpt>
<trkpt lat="47.09645800" lon="7.04507100"><ele></ele><time>2014-6-22T0:16:43Z</time></trkpt>
<trkpt lat="47.09615300" lon="7.04459300"><ele></ele><time>2014-6-22T0:16:46Z</time></trkpt>
<trkpt lat="47.09596300" lon="7.04426300"><ele></ele><time>2014-6-22T0:16:49Z</time></trkpt>
<trkpt lat="47.09565700" lon="7.04375000"><ele></ele><time>2014-6-22T0:16:52Z</time></trkpt>
<trkpt lat="47.09529500" lon="7.04318000"><ele></ele><time>2014-6-22T0:16:55Z</time></trkpt>
<trkpt lat="47.09492100" lon="7.04248900"><ele></ele><time>2014-6-22T0:16:58Z</time></trkpt>
<trkpt lat="47.09462700" lon="7.04192800"><ele></ele><time>2014-6-22T0:17:1Z</time></trkpt>
<trkpt lat="47.09426100" lon="7.04121400"><ele></ele><time>2014-6-22T0:17:4Z</time></trkpt>
<trkpt lat="47.09395600" lon="7.04063400"><ele></ele><time>2014-6-22T0:17:7Z</time></trkpt>
<trkpt lat="47.09358200" lon="7.03990800"><ele></ele><time>2014-6-22T0:17:10Z</time></trkpt>
<trkpt lat="47.09354400" lon="7.03984900"><ele></ele><time>2014-6-22T0:17:13Z</time></trkpt>
<trkpt lat="47.09312400" lon="7.03904500"><ele></ele><time>2014-6-22T0:17:16Z</time></trkpt>
<trkpt lat="47.09270100" lon="7.03819700"><ele></ele><time>2014-6-22T0:17:19Z</time></trkpt>
<trkpt lat="47.09229300" lon="7.03740700"><ele></ele><time>2014-6-22T0:17:22Z</time></trkpt>
<trkpt lat="47.09198800" lon="7.03680100"><ele></ele><time>2014-6-22T0:17:25Z</time></trkpt>
<trkpt lat="47.09166300" lon="7.03619100"><ele></ele><time>2014-6-22T0:17:28Z</time></trkpt>
<trkpt lat="47.09135100" lon="7.03556600"><ele></ele><time>2014-6-22T0:17:31Z</time></trkpt>
<trkpt lat="47.09108700" lon="7.03505300"><ele></ele><time>2014-6-22T0:17:34Z</time></trkpt>
<trkpt lat="47.09073300" lon="7.03435900"><ele></ele><time>2014-6-22T0:17:37Z</time></trkpt>
<trkpt lat="47.09037000" lon="7.03372500"><ele></ele><time>2014-6-22T0:17:40Z</time></trkpt>
<trkpt lat="47.08990900" lon="7.03306300"><ele></ele><time>2014-6-22T0:17:43Z</time></trkpt>
<trkpt lat="47.08952700" lon="7.03263000"><ele></ele><time>2014-6-22T0:17:46Z</time></trkpt>
<trkpt lat="47.08905000" lon="7.03218400"><ele></ele><time>2014-6-22T0:17:49Z</time></trkpt>
<trkpt lat="47.08871500" lon="7.03194100"><ele></ele><time>2014-6-22T0:17:52Z</time></trkpt>
<trkpt lat="47.08815000" lon="7.03157500"><ele></ele><time>2014-6-22T0:17:55Z</time></trkpt>
<trkpt lat="47.08764600" lon="7.03136300"><ele></ele><time>2014-6-22T0:17:58Z</time></trkpt>
<trkpt lat="47.08755900" lon="7.03133500"><ele></ele><time>2014-6-22T0:18:1Z</time></trkpt>
<trkpt lat="47.08704400" lon="7.03122500"><ele></ele><time>2014-6-22T0:18:4Z</time></trkpt>
<trkpt lat="47.08651400" lon="7.03116800"><ele></ele><time>2014-6-22T0:18:7Z</time></trkpt>
<trkpt lat="47.08606300" lon="7.03114600"><ele></ele><time>2014-6-22T0:18:10Z</time></trkpt>
<trkpt lat="47.08565100" lon="7.03109600"><ele></ele><time>2014-6-22T0:18:13Z</time></trkpt>
<trkpt lat="47.08534600" lon="7.03094100"><ele></ele><time>2014-6-22T0:18:16Z</time></trkpt>
<trkpt lat="47.08500700" lon="7.03060700"><ele></ele><time>2014-6-22T0:18:19Z</time></trkpt>
<trkpt lat="47.08469000" lon="7.03015500"><ele></ele><time>2014-6-22T0:18:22Z</time></trkpt>
<trkpt lat="47.08438500" lon="7.02974100"><ele></ele><time>2014-6-22T0:18:25Z</time></trkpt>
<trkpt lat="47.08408000" lon="7.02941000"><ele></ele><time>2014-6-22T0:18:28Z</time></trkpt>
<trkpt lat="47.08366800" lon="7.02907000"><ele></ele><time>2014-6-22T0:18:31Z</time></trkpt>
<trkpt lat="47.08309600" lon="7.02873200"><ele></ele><time>2014-6-22T0:18:34Z</time></trkpt>
<trkpt lat="47.08289000" lon="7.02868700"><ele></ele><time>2014-6-22T0:18:37Z</time></trkpt>
<trkpt lat="47.08284800" lon="7.02867100"><ele></ele><time>2014-6-22T0:18:40Z</time></trkpt>
<trkpt lat="47.08250400" lon="7.02837900"><ele></ele><time>2014-6-22T0:18:43Z</time></trkpt>
<trkpt lat="47.08247000" lon="7.02834500"><ele></ele><time>2014-6-22T0:18:46Z</time></trkpt>
<trkpt lat="47.08229800" lon="7.02810300"><ele></ele><time>2014-6-22T0:18:49Z</time></trkpt>
<trkpt lat="47.08221400" lon="7.02800600"><ele></ele><time>2014-6-22T0:18:52Z</time></trkpt>
<trkpt lat="47.08216500" lon="7.02796700"><ele></ele><time>2014-6-22T0:18:55Z</time></trkpt>
<trkpt lat="47.08156600" lon="7.02757300"><ele></ele><time>2014-6-22T0:18:58Z</time></trkpt>
<trkpt lat="47.08115000" lon="7.02727700"><ele></ele><time>2014-6-22T0:19:1Z</time></trkpt>
<trkpt lat="47.08046700" lon="7.02670100"><ele></ele><time>2014-6-22T0:19:4Z</time></trkpt>
<trkpt lat="47.07971600" lon="7.02623000"><ele></ele><time>2014-6-22T0:19:7Z</time></trkpt>
<trkpt lat="47.07936100" lon="7.02609400"><ele></ele><time>2014-6-22T0:19:10Z</time></trkpt>
<trkpt lat="47.07859800" lon="7.02583100"><ele></ele><time>2014-6-22T0:19:13Z</time></trkpt>
<trkpt lat="47.07782400" lon="7.02545100"><ele></ele><time>2014-6-22T0:19:16Z</time></trkpt>
<trkpt lat="47.07689700" lon="7.02495800"><ele></ele><time>2014-6-22T0:19:19Z</time></trkpt>
<trkpt lat="47.07635100" lon="7.02453100"><ele></ele><time>2014-6-22T0:19:22Z</time></trkpt>
<trkpt lat="47.07588200" lon="7.02409300"><ele></ele><time>2014-6-22T0:19:25Z</time></trkpt>
<trkpt lat="47.07529800" lon="7.02339600"><ele></ele><time>2014-6-22T0:19:28Z</time></trkpt>
<trkpt lat="47.07466500" lon="7.02276500"><ele></ele><time>2014-6-22T0:19:31Z</time></trkpt>
<trkpt lat="47.07460000" lon="7.02271600"><ele></ele><time>2014-6-22T0:19:34Z</time></trkpt>
<trkpt lat="47.07421500" lon="7.02249900"><ele></ele><time>2014-6-22T0:19:37Z</time></trkpt>
<trkpt lat="47.07384100" lon="7.02235500"><ele></ele><time>2014-6-22T0:19:40Z</time></trkpt>
<trkpt lat="47.07338700" lon="7.02226600"><ele></ele><time>2014-6-22T0:19:43Z</time></trkpt>
<trkpt lat="47.07283800" lon="7.02218200"><ele></ele><time>2014-6-22T0:19:46Z</time></trkpt>
<trkpt lat="47.07239500" lon="7.02199500"><ele></ele><time>2014-6-22T0:19:49Z</time></trkpt>
<trkpt lat="47.07171600" lon="7.02135400"><ele></ele><time>2014-6-22T0:19:52Z</time></trkpt>
<trkpt lat="47.07103700" lon="7.02076400"><ele></ele><time>2014-6-22T0:19:55Z</time></trkpt>
<trkpt lat="47.07037700" lon="7.02041700"><ele></ele><time>2014-6-22T0:19:58Z</time></trkpt>
<trkpt lat="47.06978200" lon="7.02019200"><ele></ele><time>2014-6-22T0:20:1Z</time></trkpt>
<trkpt lat="47.06920600" lon="7.01982600"><ele></ele><time>2014-6-22T0:20:4Z</time></trkpt>
<trkpt lat="47.06840900" lon="7.01915600"><ele></ele><time>2014-6-22T0:20:7Z</time></trkpt>
<trkpt lat="47.06790500" lon="7.01889900"><ele></ele><time>2014-6-22T0:20:10Z</time></trkpt>
<trkpt lat="47.06740600" lon="7.01871000"><ele></ele><time>2014-6-22T0:20:13Z</time></trkpt>
<trkpt lat="47.06699000" lon="7.01837600"><ele></ele><time>2014-6-22T0:20:16Z</time></trkpt>
<trkpt lat="47.06656300" lon="7.01780200"><ele></ele><time>2014-6-22T0:20:19Z</time></trkpt>
<trkpt lat="47.06610900" lon="7.01727600"><ele></ele><time>2014-6-22T0:20:22Z</time></trkpt>
<trkpt lat="47.06552500" lon="7.01684500"><ele></ele><time>2014-6-22T0:20:25Z</time></trkpt>
<trkpt lat="47.06534600" lon="7.01671000"><ele></ele><time>2014-6-22T0:20:28Z</time></trkpt>
<trkpt lat="47.06489600" lon="7.01622200"><ele></ele><time>2014-6-22T0:20:31Z</time></trkpt>
<trkpt lat="47.06441500" lon="7.01599800"><ele></ele><time>2014-6-22T0:20:34Z</time></trkpt>
<trkpt lat="47.06403000" lon="7.01589900"><ele></ele><time>2014-6-22T0:20:37Z</time></trkpt>
<trkpt lat="47.06390800" lon="7.01584000"><ele></ele><time>2014-6-22T0:20:40Z</time></trkpt>
<trkpt lat="47.06337000" lon="7.01536600"><ele></ele><time>2014-6-22T0:20:43Z</time></trkpt>
<trkpt lat="47.06327100" lon="7.01527000"><ele></ele><time>2014-6-22T0:20:46Z</time></trkpt>
<trkpt lat="47.06305300" lon="7.01513300"><ele></ele><time>2014-6-22T0:20:49Z</time></trkpt>
<trkpt lat="47.06231700" lon="7.01495600"><ele></ele><time>2014-6-22T0:20:52Z</time></trkpt>
<trkpt lat="47.06114200" lon="7.01474000"><ele></ele><time>2014-6-22T0:20:55Z</time></trkpt>
<trkpt lat="47.06066500" lon="7.01464200"><ele></ele><time>2014-6-22T0:20:58Z</time></trkpt>
<trkpt lat="47.06017700" lon="7.01443600"><ele></ele><time>2014-6-22T0:21:1Z</time></trkpt>
<trkpt lat="47.05891400" lon="7.01345600"><ele></ele><time>2014-6-22T0:21:4Z</time></trkpt>
<trkpt lat="47.05809400" lon="7.01284800"><ele></ele><time>2014-6-22T0:21:7Z</time></trkpt>
<trkpt lat="47.05702200" lon="7.01220800"><ele></ele><time>2014-6-22T0:21:10Z</time></trkpt>
<trkpt lat="47.05648000" lon="7.01200700"><ele></ele><time>2014-6-22T0:21:13Z</time></trkpt>
<trkpt lat="47.05624000" lon="7.01185700"><ele></ele><time>2014-6-22T0:21:16Z</time></trkpt>
<trkpt lat="47.05603000" lon="7.01165000"><ele></ele><time>2014-6-22T0:21:19Z</time></trkpt>
<trkpt lat="47.05585900" lon="7.01139100"><ele></ele><time>2014-6-22T0:21:22Z</time></trkpt>
<trkpt lat="47.05559500" lon="7.01052500"><ele></ele><time>2014-6-22T0:21:25Z</time></trkpt>
<trkpt lat="47.05521800" lon="7.00960600"><ele></ele><time>2014-6-22T0:21:28Z</time></trkpt>
<trkpt lat="47.05502700" lon="7.00926800"><ele></ele><time>2014-6-22T0:21:31Z</time></trkpt>
<trkpt lat="47.05447000" lon="7.00886700"><ele></ele><time>2014-6-22T0:21:34Z</time></trkpt>
<trkpt lat="47.05416500" lon="7.00875100"><ele></ele><time>2014-6-22T0:21:37Z</time></trkpt>
<trkpt lat="47.05364200" lon="7.00841500"><ele></ele><time>2014-6-22T0:21:40Z</time></trkpt>
<trkpt lat="47.05336000" lon="7.00811300"><ele></ele><time>2014-6-22T0:21:43Z</time></trkpt>
<trkpt lat="47.05328800" lon="7.00801800"><ele></ele><time>2014-6-22T0:21:46Z</time></trkpt>
<trkpt lat="47.05318800" lon="7.00754800"><ele></ele><time>2014-6-22T0:21:49Z</time></trkpt>
<trkpt lat="47.05308900" lon="7.00707900"><ele></ele><time>2014-6-22T0:21:52Z</time></trkpt>
<trkpt lat="47.05294400" lon="7.00632600"><ele></ele><time>2014-6-22T0:21:55Z</time></trkpt>
<trkpt lat="47.05296300" lon="7.00602000"><ele></ele><time>2014-6-22T0:21:58Z</time></trkpt>
<trkpt lat="47.05298200" lon="7.00571500"><ele></ele><time>2014-6-22T0:22:1Z</time></trkpt>
<trkpt lat="47.05300100" lon="7.00540900"><ele></ele><time>2014-6-22T0:22:4Z</time></trkpt>
<trkpt lat="47.05291400" lon="7.00485000"><ele></ele><time>2014-6-22T0:22:7Z</time></trkpt>
<trkpt lat="47.05289700" lon="7.00484300"><ele></ele><time>2014-6-22T0:22:10Z</time></trkpt>
<trkpt lat="47.05288000" lon="7.00483600"><ele></ele><time>2014-6-22T0:22:13Z</time></trkpt>
<trkpt lat="47.05286300" lon="7.00482900"><ele></ele><time>2014-6-22T0:22:16Z</time></trkpt>
<trkpt lat="47.05284700" lon="7.00482200"><ele></ele><time>2014-6-22T0:22:19Z</time></trkpt>
<trkpt lat="47.05283000" lon="7.00481600"><ele></ele><time>2014-6-22T0:22:22Z</time></trkpt>
<trkpt lat="47.05240300" lon="7.00485500"><ele></ele><time>2014-6-22T0:22:25Z</time></trkpt>
<trkpt lat="47.05197700" lon="7.00489500"><ele></ele><time>2014-6-22T0:22:28Z</time></trkpt>
<trkpt lat="47.05155100" lon="7.00493500"><ele></ele><time>2014-6-22T0:22:31Z</time></trkpt>
<trkpt lat="47.05112500" lon="7.00497400"><ele></ele><time>2014-6-22T0:22:34Z</time></trkpt>
<trkpt lat="47.05089000" lon="7.00487000"><ele></ele><time>2014-6-22T0:22:37Z</time></trkpt>
<trkpt lat="47.05065500" lon="7.00476500"><ele></ele><time>2014-6-22T0:22:40Z</time></trkpt>
<trkpt lat="47.05015900" lon="7.00380700"><ele></ele><time>2014-6-22T0:22:43Z</time></trkpt>
<trkpt lat="47.04966400" lon="7.00284900"><ele></ele><time>2014-6-22T0:22:46Z</time></trkpt>
<trkpt lat="47.04927100" lon="7.00257000"><ele></ele><time>2014-6-22T0:22:49Z</time></trkpt>
<trkpt lat="47.04889800" lon="7.00191100"><ele></ele><time>2014-6-22T0:22:52Z</time></trkpt>
<trkpt lat="47.04852600" lon="7.00125200"><ele></ele><time>2014-6-22T0:22:55Z</time></trkpt>
<trkpt lat="47.04815400" lon="7.00059300"><ele></ele><time>2014-6-22T0:22:58Z</time></trkpt>
<trkpt lat="47.04778100" lon="6.99993400"><ele></ele><time>2014-6-22T0:23:1Z</time></trkpt>
<trkpt lat="47.04740900" lon="6.99927500"><ele></ele><time>2014-6-22T0:23:4Z</time></trkpt>
<trkpt lat="47.04703200" lon="6.99925700"><ele></ele><time>2014-6-22T0:23:7Z</time></trkpt>
<trkpt lat="47.04665600" lon="6.99923800"><ele></ele><time>2014-6-22T0:23:10Z</time></trkpt>
<trkpt lat="47.04627900" lon="6.99922000"><ele></ele><time>2014-6-22T0:23:13Z</time></trkpt>
<trkpt lat="47.04590200" lon="6.99920200"><ele></ele><time>2014-6-22T0:23:16Z</time></trkpt>
<trkpt lat="47.04564500" lon="6.99922200"><ele></ele><time>2014-6-22T0:23:19Z</time></trkpt>
<trkpt lat="47.04538900" lon="6.99924200"><ele></ele><time>2014-6-22T0:23:22Z</time></trkpt>
<trkpt lat="47.04513200" lon="6.99926100"><ele></ele><time>2014-6-22T0:23:25Z</time></trkpt>
<trkpt lat="47.04483800" lon="6.99902900"><ele></ele><time>2014-6-22T0:23:28Z</time></trkpt>
<trkpt lat="47.04432700" lon="6.99862700"><ele></ele><time>2014-6-22T0:23:31Z</time></trkpt>
<trkpt lat="47.04403700" lon="6.99842000"><ele></ele><time>2014-6-22T0:23:34Z</time></trkpt>
<trkpt lat="47.04370900" lon="6.99794100"><ele></ele><time>2014-6-22T0:23:37Z</time></trkpt>
<trkpt lat="47.04304900" lon="6.99749000"><ele></ele><time>2014-6-22T0:23:40Z</time></trkpt>
<trkpt lat="47.04245800" lon="6.99717100"><ele></ele><time>2014-6-22T0:23:43Z</time></trkpt>
<trkpt lat="47.04188500" lon="6.99683600"><ele></ele><time>2014-6-22T0:23:46Z</time></trkpt>
<trkpt lat="47.04179800" lon="6.99680200"><ele></ele><time>2014-6-22T0:23:49Z</time></trkpt>
<trkpt lat="47.04151900" lon="6.99670000"><ele></ele><time>2014-6-22T0:23:52Z</time></trkpt>
<trkpt lat="47.04142400" lon="6.99667300"><ele></ele><time>2014-6-22T0:23:55Z</time></trkpt>
<trkpt lat="47.04111100" lon="6.99664500"><ele></ele><time>2014-6-22T0:23:58Z</time></trkpt>
<trkpt lat="47.04088200" lon="6.99658000"><ele></ele><time>2014-6-22T0:24:1Z</time></trkpt>
<trkpt lat="47.04030600" lon="6.99603800"><ele></ele><time>2014-6-22T0:24:4Z</time></trkpt>
<trkpt lat="47.03982200" lon="6.99552400"><ele></ele><time>2014-6-22T0:24:7Z</time></trkpt>
<trkpt lat="47.03903600" lon="6.99491000"><ele></ele><time>2014-6-22T0:24:10Z</time></trkpt>
<trkpt lat="47.03876500" lon="6.99479200"><ele></ele><time>2014-6-22T0:24:13Z</time></trkpt>
<trkpt lat="47.03849000" lon="6.99481600"><ele></ele><time>2014-6-22T0:24:16Z</time></trkpt>
<trkpt lat="47.03796800" lon="6.99500800"><ele></ele><time>2014-6-22T0:24:19Z</time></trkpt>
<trkpt lat="47.03724300" lon="6.99517800"><ele></ele><time>2014-6-22T0:24:22Z</time></trkpt>
<trkpt lat="47.03680000" lon="6.99527400"><ele></ele><time>2014-6-22T0:24:25Z</time></trkpt>
<trkpt lat="47.03658300" lon="6.99524300"><ele></ele><time>2014-6-22T0:24:28Z</time></trkpt>
<trkpt lat="47.03596500" lon="6.99489000"><ele></ele><time>2014-6-22T0:24:31Z</time></trkpt>
<trkpt lat="47.03532000" lon="6.99457500"><ele></ele><time>2014-6-22T0:24:34Z</time></trkpt>
<trkpt lat="47.03423300" lon="6.99405600"><ele></ele><time>2014-6-22T0:24:37Z</time></trkpt>
<trkpt lat="47.03315400" lon="6.99358800"><ele></ele><time>2014-6-22T0:24:40Z</time></trkpt>
<trkpt lat="47.03218100" lon="6.99335900"><ele></ele><time>2014-6-22T0:24:43Z</time></trkpt>
<trkpt lat="47.03108600" lon="6.99303600"><ele></ele><time>2014-6-22T0:24:46Z</time></trkpt>
<trkpt lat="47.03046000" lon="6.99297500"><ele></ele><time>2014-6-22T0:24:49Z</time></trkpt>
<trkpt lat="47.02942700" lon="6.99303000"><ele></ele><time>2014-6-22T0:24:52Z</time></trkpt>
<trkpt lat="47.02841200" lon="6.99317100"><ele></ele><time>2014-6-22T0:24:55Z</time></trkpt>
<trkpt lat="47.02796200" lon="6.99328200"><ele></ele><time>2014-6-22T0:24:58Z</time></trkpt>
<trkpt lat="47.02788200" lon="6.99329700"><ele></ele><time>2014-6-22T0:25:1Z</time></trkpt>
<trkpt lat="47.02780200" lon="6.99329400"><ele></ele><time>2014-6-22T0:25:4Z</time></trkpt>
<trkpt lat="47.02748900" lon="6.99306600"><ele></ele><time>2014-6-22T0:25:7Z</time></trkpt>
<trkpt lat="47.02717600" lon="6.99283800"><ele></ele><time>2014-6-22T0:25:10Z</time></trkpt>
<trkpt lat="47.02692400" lon="6.99256000"><ele></ele><time>2014-6-22T0:25:13Z</time></trkpt>
<trkpt lat="47.02687100" lon="6.99247700"><ele></ele><time>2014-6-22T0:25:16Z</time></trkpt>
<trkpt lat="47.02657700" lon="6.99179100"><ele></ele><time>2014-6-22T0:25:19Z</time></trkpt>
<trkpt lat="47.02642800" lon="6.99143200"><ele></ele><time>2014-6-22T0:25:22Z</time></trkpt>
<trkpt lat="47.02625700" lon="6.99055300"><ele></ele><time>2014-6-22T0:25:25Z</time></trkpt>
<trkpt lat="47.02624100" lon="6.99035800"><ele></ele><time>2014-6-22T0:25:28Z</time></trkpt>
<trkpt lat="47.02636000" lon="6.99015500"><ele></ele><time>2014-6-22T0:25:31Z</time></trkpt>
<trkpt lat="47.02647800" lon="6.98995100"><ele></ele><time>2014-6-22T0:25:34Z</time></trkpt>
<trkpt lat="47.02675200" lon="6.98971900"><ele></ele><time>2014-6-22T0:25:37Z</time></trkpt>
<trkpt lat="47.02697000" lon="6.98960600"><ele></ele><time>2014-6-22T0:25:40Z</time></trkpt>
<trkpt lat="47.02719500" lon="6.98945800"><ele></ele><time>2014-6-22T0:25:43Z</time></trkpt>
<trkpt lat="47.02744700" lon="6.98916700"><ele></ele><time>2014-6-22T0:25:46Z</time></trkpt>
<trkpt lat="47.02750800" lon="6.98890400"><ele></ele><time>2014-6-22T0:25:49Z</time></trkpt>
<trkpt lat="47.02747700" lon="6.98880400"><ele></ele><time>2014-6-22T0:25:52Z</time></trkpt>
<trkpt lat="47.02730200" lon="6.98855000"><ele></ele><time>2014-6-22T0:25:55Z</time></trkpt>
<trkpt lat="47.02726400" lon="6.98852000"><ele></ele><time>2014-6-22T0:25:58Z</time></trkpt>
<trkpt lat="47.02693200" lon="6.98845300"><ele></ele><time>2014-6-22T0:26:1Z</time></trkpt>
<trkpt lat="47.02654300" lon="6.98832900"><ele></ele><time>2014-6-22T0:26:4Z</time></trkpt>
<trkpt lat="47.02616900" lon="6.98818400"><ele></ele><time>2014-6-22T0:26:7Z</time></trkpt>
<trkpt lat="47.02575700" lon="6.98803000"><ele></ele><time>2014-6-22T0:26:10Z</time></trkpt>
<trkpt lat="47.02537500" lon="6.98790900"><ele></ele><time>2014-6-22T0:26:13Z</time></trkpt>
<trkpt lat="47.02532200" lon="6.98789300"><ele></ele><time>2014-6-22T0:26:16Z</time></trkpt>
<trkpt lat="47.02486000" lon="6.98757600"><ele></ele><time>2014-6-22T0:26:19Z</time></trkpt>
<trkpt lat="47.02436400" lon="6.98729500"><ele></ele><time>2014-6-22T0:26:22Z</time></trkpt>
<trkpt lat="47.02385300" lon="6.98702000"><ele></ele><time>2014-6-22T0:26:25Z</time></trkpt>
<trkpt lat="47.02352100" lon="6.98667000"><ele></ele><time>2014-6-22T0:26:28Z</time></trkpt>
<trkpt lat="47.02314800" lon="6.98611600"><ele></ele><time>2014-6-22T0:26:31Z</time></trkpt>
<trkpt lat="47.02273900" lon="6.98551700"><ele></ele><time>2014-6-22T0:26:34Z</time></trkpt>
<trkpt lat="47.02253700" lon="6.98510000"><ele></ele><time>2014-6-22T0:26:37Z</time></trkpt>
<trkpt lat="47.02238100" lon="6.98461500"><ele></ele><time>2014-6-22T0:26:40Z</time></trkpt>
<trkpt lat="47.02218600" lon="6.98403600"><ele></ele><time>2014-6-22T0:26:43Z</time></trkpt>
<trkpt lat="47.02194200" lon="6.98358800"><ele></ele><time>2014-6-22T0:26:46Z</time></trkpt>
<trkpt lat="47.02158400" lon="6.98310000"><ele></ele><time>2014-6-22T0:26:49Z</time></trkpt>
<trkpt lat="47.02101500" lon="6.98228800"><ele></ele><time>2014-6-22T0:26:52Z</time></trkpt>
<trkpt lat="47.02069900" lon="6.98154500"><ele></ele><time>2014-6-22T0:26:55Z</time></trkpt>
<trkpt lat="47.02041200" lon="6.98086300"><ele></ele><time>2014-6-22T0:26:58Z</time></trkpt>
<trkpt lat="47.02010000" lon="6.98013400"><ele></ele><time>2014-6-22T0:27:1Z</time></trkpt>
<trkpt lat="47.01974500" lon="6.97928300"><ele></ele><time>2014-6-22T0:27:4Z</time></trkpt>
<trkpt lat="47.01954300" lon="6.97870000"><ele></ele><time>2014-6-22T0:27:7Z</time></trkpt>
<trkpt lat="47.01940500" lon="6.97826100"><ele></ele><time>2014-6-22T0:27:10Z</time></trkpt>
<trkpt lat="47.01937500" lon="6.97816800"><ele></ele><time>2014-6-22T0:27:13Z</time></trkpt>
<trkpt lat="47.01926400" lon="6.97799100"><ele></ele><time>2014-6-22T0:27:16Z</time></trkpt>
<trkpt lat="47.01874500" lon="6.97761200"><ele></ele><time>2014-6-22T0:27:19Z</time></trkpt>
<trkpt lat="47.01821100" lon="6.97724700"><ele></ele><time>2014-6-22T0:27:22Z</time></trkpt>
<trkpt lat="47.01815000" lon="6.97720100"><ele></ele><time>2014-6-22T0:27:25Z</time></trkpt>
<trkpt lat="47.01802800" lon="6.97713000"><ele></ele><time>2014-6-22T0:27:28Z</time></trkpt>
<trkpt lat="47.01765100" lon="6.97684200"><ele></ele><time>2014-6-22T0:27:31Z</time></trkpt>
<trkpt lat="47.01747100" lon="6.97663800"><ele></ele><time>2014-6-22T0:27:34Z</time></trkpt>
<trkpt lat="47.01737600" lon="6.97648600"><ele></ele><time>2014-6-22T0:27:37Z</time></trkpt>
<trkpt lat="47.01743300" lon="6.97609900"><ele></ele><time>2014-6-22T0:27:40Z</time></trkpt>
<trkpt lat="47.01745200" lon="6.97589800"><ele></ele><time>2014-6-22T0:27:43Z</time></trkpt>
<trkpt lat="47.01723500" lon="6.97519100"><ele></ele><time>2014-6-22T0:27:46Z</time></trkpt>
<trkpt lat="47.01671200" lon="6.97438400"><ele></ele><time>2014-6-22T0:27:49Z</time></trkpt>
<trkpt lat="47.01621200" lon="6.97349900"><ele></ele><time>2014-6-22T0:27:52Z</time></trkpt>
<trkpt lat="47.01584200" lon="6.97278100"><ele></ele><time>2014-6-22T0:27:55Z</time></trkpt>
<trkpt lat="47.01574300" lon="6.97264400"><ele></ele><time>2014-6-22T0:27:58Z</time></trkpt>
<trkpt lat="47.01568600" lon="6.97260000"><ele></ele><time>2014-6-22T0:28:1Z</time></trkpt>
<trkpt lat="47.01536200" lon="6.97263100"><ele></ele><time>2014-6-22T0:28:4Z</time></trkpt>
<trkpt lat="47.01492700" lon="6.97269200"><ele></ele><time>2014-6-22T0:28:7Z</time></trkpt>
<trkpt lat="47.01469000" lon="6.97267200"><ele></ele><time>2014-6-22T0:28:10Z</time></trkpt>
<trkpt lat="47.01429700" lon="6.97203900"><ele></ele><time>2014-6-22T0:28:13Z</time></trkpt>
<trkpt lat="47.01422100" lon="6.97191600"><ele></ele><time>2014-6-22T0:28:16Z</time></trkpt>
<trkpt lat="47.01398100" lon="6.97168900"><ele></ele><time>2014-6-22T0:28:19Z</time></trkpt>
<trkpt lat="47.01376000" lon="6.97168200"><ele></ele><time>2014-6-22T0:28:22Z</time></trkpt>
<trkpt lat="47.01353800" lon="6.97167500"><ele></ele><time>2014-6-22T0:28:25Z</time></trkpt>
<trkpt lat="47.01344700" lon="6.97156400"><ele></ele><time>2014-6-22T0:28:28Z</time></trkpt>
<trkpt lat="47.01340100" lon="6.97150800"><ele></ele><time>2014-6-22T0:28:31Z</time></trkpt>
<trkpt lat="47.01304400" lon="6.97120800"><ele></ele><time>2014-6-22T0:28:34Z</time></trkpt>
<trkpt lat="47.01268800" lon="6.97090800"><ele></ele><time>2014-6-22T0:28:37Z</time></trkpt>
<trkpt lat="47.01263400" lon="6.97088500"><ele></ele><time>2014-6-22T0:28:40Z</time></trkpt>
<trkpt lat="47.01253100" lon="6.97086600"><ele></ele><time>2014-6-22T0:28:43Z</time></trkpt>
<trkpt lat="47.01213800" lon="6.97113800"><ele></ele><time>2014-6-22T0:28:46Z</time></trkpt>
<trkpt lat="47.01202800" lon="6.97115400"><ele></ele><time>2014-6-22T0:28:49Z</time></trkpt>
<trkpt lat="47.01195500" lon="6.97106100"><ele></ele><time>2014-6-22T0:28:52Z</time></trkpt>
<trkpt lat="47.01179100" lon="6.97054100"><ele></ele><time>2014-6-22T0:28:55Z</time></trkpt>
<trkpt lat="47.01168100" lon="6.97016300"><ele></ele><time>2014-6-22T0:28:58Z</time></trkpt>
<trkpt lat="47.01154300" lon="6.96968000"><ele></ele><time>2014-6-22T0:29:1Z</time></trkpt>
<trkpt lat="47.01136400" lon="6.96906200"><ele></ele><time>2014-6-22T0:29:4Z</time></trkpt>
<trkpt lat="47.01109300" lon="6.96819800"><ele></ele><time>2014-6-22T0:29:7Z</time></trkpt>
<trkpt lat="47.01106300" lon="6.96811400"><ele></ele><time>2014-6-22T0:29:10Z</time></trkpt>
<trkpt lat="47.01103200" lon="6.96803000"><ele></ele><time>2014-6-22T0:29:13Z</time></trkpt>
<trkpt lat="47.01100200" lon="6.96794600"><ele></ele><time>2014-6-22T0:29:16Z</time></trkpt>
<trkpt lat="47.01097100" lon="6.96786200"><ele></ele><time>2014-6-22T0:29:19Z</time></trkpt>
<trkpt lat="47.01097100" lon="6.96786200"><ele></ele><time>2014-6-22T0:29:22Z</time></trkpt>
<trkpt lat="47.01096700" lon="6.96785000"><ele></ele><time>2014-6-22T0:29:25Z</time></trkpt>
<trkpt lat="47.01096300" lon="6.96783700"><ele></ele><time>2014-6-22T0:29:28Z</time></trkpt>
<trkpt lat="47.01096000" lon="6.96782400"><ele></ele><time>2014-6-22T0:29:31Z</time></trkpt>
<trkpt lat="47.01092000" lon="6.96767800"><ele></ele><time>2014-6-22T0:29:34Z</time></trkpt>
<trkpt lat="47.01088000" lon="6.96753100"><ele></ele><time>2014-6-22T0:29:37Z</time></trkpt>
<trkpt lat="47.01083900" lon="6.96738500"><ele></ele><time>2014-6-22T0:29:40Z</time></trkpt>
<trkpt lat="47.01079900" lon="6.96723800"><ele></ele><time>2014-6-22T0:29:43Z</time></trkpt>
<trkpt lat="47.01073100" lon="6.96691100"><ele></ele><time>2014-6-22T0:29:46Z</time></trkpt>
<trkpt lat="47.01055500" lon="6.96616400"><ele></ele><time>2014-6-22T0:29:49Z</time></trkpt>
<trkpt lat="47.01026900" lon="6.96518100"><ele></ele><time>2014-6-22T0:29:52Z</time></trkpt>
<trkpt lat="47.00986900" lon="6.96427100"><ele></ele><time>2014-6-22T0:29:55Z</time></trkpt>
<trkpt lat="47.00959800" lon="6.96375100"><ele></ele><time>2014-6-22T0:29:58Z</time></trkpt>
<trkpt lat="47.00956700" lon="6.96370900"><ele></ele><time>2014-6-22T0:30:1Z</time></trkpt>
<trkpt lat="47.00939200" lon="6.96327100"><ele></ele><time>2014-6-22T0:30:4Z</time></trkpt>
<trkpt lat="47.00904500" lon="6.96253300"><ele></ele><time>2014-6-22T0:30:7Z</time></trkpt>
<trkpt lat="47.00882300" lon="6.96207200"><ele></ele><time>2014-6-22T0:30:10Z</time></trkpt>
<trkpt lat="47.00846900" lon="6.96131500"><ele></ele><time>2014-6-22T0:30:13Z</time></trkpt>
<trkpt lat="47.00809500" lon="6.96053700"><ele></ele><time>2014-6-22T0:30:16Z</time></trkpt>
<trkpt lat="47.00777100" lon="6.95992200"><ele></ele><time>2014-6-22T0:30:19Z</time></trkpt>
<trkpt lat="47.00735500" lon="6.95930200"><ele></ele><time>2014-6-22T0:30:22Z</time></trkpt>
<trkpt lat="47.00669100" lon="6.95842400"><ele></ele><time>2014-6-22T0:30:25Z</time></trkpt>
<trkpt lat="47.00611900" lon="6.95767900"><ele></ele><time>2014-6-22T0:30:28Z</time></trkpt>
<trkpt lat="47.00543200" lon="6.95677100"><ele></ele><time>2014-6-22T0:30:31Z</time></trkpt>
<trkpt lat="47.00481000" lon="6.95597100"><ele></ele><time>2014-6-22T0:30:34Z</time></trkpt>
<trkpt lat="47.00428400" lon="6.95528500"><ele></ele><time>2014-6-22T0:30:37Z</time></trkpt>
<trkpt lat="47.00370000" lon="6.95436100"><ele></ele><time>2014-6-22T0:30:40Z</time></trkpt>
<trkpt lat="47.00337200" lon="6.95352200"><ele></ele><time>2014-6-22T0:30:43Z</time></trkpt>
<trkpt lat="47.00305900" lon="6.95244500"><ele></ele><time>2014-6-22T0:30:46Z</time></trkpt>
<trkpt lat="47.00280000" lon="6.95155600"><ele></ele><time>2014-6-22T0:30:49Z</time></trkpt>
<trkpt lat="47.00270100" lon="6.95121100"><ele></ele><time>2014-6-22T0:30:52Z</time></trkpt>
<trkpt lat="47.00267000" lon="6.95113900"><ele></ele><time>2014-6-22T0:30:55Z</time></trkpt>
<trkpt lat="47.00262500" lon="6.95099400"><ele></ele><time>2014-6-22T0:30:58Z</time></trkpt>
<trkpt lat="47.00259400" lon="6.95087700"><ele></ele><time>2014-6-22T0:31:1Z</time></trkpt>
<trkpt lat="47.00256300" lon="6.95076100"><ele></ele><time>2014-6-22T0:31:4Z</time></trkpt>
<trkpt lat="47.00253300" lon="6.95064500"><ele></ele><time>2014-6-22T0:31:7Z</time></trkpt>
<trkpt lat="47.00243800" lon="6.95033600"><ele></ele><time>2014-6-22T0:31:10Z</time></trkpt>
<trkpt lat="47.00226600" lon="6.94980200"><ele></ele><time>2014-6-22T0:31:13Z</time></trkpt>
<trkpt lat="47.00203300" lon="6.94908400"><ele></ele><time>2014-6-22T0:31:16Z</time></trkpt>
<trkpt lat="47.00178100" lon="6.94823600"><ele></ele><time>2014-6-22T0:31:19Z</time></trkpt>
<trkpt lat="47.00143800" lon="6.94725800"><ele></ele><time>2014-6-22T0:31:22Z</time></trkpt>
<trkpt lat="47.00106800" lon="6.94623700"><ele></ele><time>2014-6-22T0:31:25Z</time></trkpt>
<trkpt lat="47.00069800" lon="6.94515300"><ele></ele><time>2014-6-22T0:31:28Z</time></trkpt>
<trkpt lat="47.00039700" lon="6.94435500"><ele></ele><time>2014-6-22T0:31:31Z</time></trkpt>
<trkpt lat="47.00002300" lon="6.94328200"><ele></ele><time>2014-6-22T0:31:34Z</time></trkpt>
<trkpt lat="46.99979400" lon="6.94261400"><ele></ele><time>2014-6-22T0:31:37Z</time></trkpt>
<trkpt lat="46.99961500" lon="6.94209900"><ele></ele><time>2014-6-22T0:31:40Z</time></trkpt>
<trkpt lat="46.99942000" lon="6.94158800"><ele></ele><time>2014-6-22T0:31:43Z</time></trkpt>
<trkpt lat="46.99913400" lon="6.94070300"><ele></ele><time>2014-6-22T0:31:46Z</time></trkpt>
<trkpt lat="46.99887800" lon="6.93981100"><ele></ele><time>2014-6-22T0:31:49Z</time></trkpt>
<trkpt lat="46.99866900" lon="6.93908300"><ele></ele><time>2014-6-22T0:31:52Z</time></trkpt>
<trkpt lat="46.99840900" lon="6.93825700"><ele></ele><time>2014-6-22T0:31:55Z</time></trkpt>
<trkpt lat="46.99814200" lon="6.93753800"><ele></ele><time>2014-6-22T0:31:58Z</time></trkpt>
<trkpt lat="46.99784500" lon="6.93689600"><ele></ele><time>2014-6-22T0:32:1Z</time></trkpt>
<trkpt lat="46.99745200" lon="6.93589600"><ele></ele><time>2014-6-22T0:32:4Z</time></trkpt>
<trkpt lat="46.99695200" lon="6.93449800"><ele></ele><time>2014-6-22T0:32:7Z</time></trkpt>
<trkpt lat="46.99650600" lon="6.93349700"><ele></ele><time>2014-6-22T0:32:10Z</time></trkpt>
<trkpt lat="46.99644500" lon="6.93336800"><ele></ele><time>2014-6-22T0:32:13Z</time></trkpt>
<trkpt lat="46.99638700" lon="6.93323800"><ele></ele><time>2014-6-22T0:32:16Z</time></trkpt>
<trkpt lat="46.99602500" lon="6.93289700"><ele></ele><time>2014-6-22T0:32:19Z</time></trkpt>
<trkpt lat="46.99510600" lon="6.93262400"><ele></ele><time>2014-6-22T0:32:22Z</time></trkpt>
<trkpt lat="46.99463700" lon="6.93251300"><ele></ele><time>2014-6-22T0:32:25Z</time></trkpt>
<trkpt lat="46.99399200" lon="6.93192600"><ele></ele><time>2014-6-22T0:32:28Z</time></trkpt>
<trkpt lat="46.99333600" lon="6.93102600"><ele></ele><time>2014-6-22T0:32:31Z</time></trkpt>
<trkpt lat="46.99308000" lon="6.93036300"><ele></ele><time>2014-6-22T0:32:34Z</time></trkpt>
<trkpt lat="46.99305000" lon="6.93026400"><ele></ele><time>2014-6-22T0:32:37Z</time></trkpt>
<trkpt lat="46.99302600" lon="6.93018400"><ele></ele><time>2014-6-22T0:32:40Z</time></trkpt>
<trkpt lat="46.99300200" lon="6.93010400"><ele></ele><time>2014-6-22T0:32:43Z</time></trkpt>
<trkpt lat="46.99297800" lon="6.93002300"><ele></ele><time>2014-6-22T0:32:46Z</time></trkpt>
<trkpt lat="46.99295400" lon="6.92994300"><ele></ele><time>2014-6-22T0:32:49Z</time></trkpt>
<trkpt lat="46.99293500" lon="6.92988000"><ele></ele><time>2014-6-22T0:32:52Z</time></trkpt>
<trkpt lat="46.99293100" lon="6.92954000"><ele></ele><time>2014-6-22T0:32:55Z</time></trkpt>
<trkpt lat="46.99310800" lon="6.92879300"><ele></ele><time>2014-6-22T0:32:58Z</time></trkpt>
<trkpt lat="46.99328500" lon="6.92804700"><ele></ele><time>2014-6-22T0:33:1Z</time></trkpt>
<trkpt lat="46.99346200" lon="6.92730000"><ele></ele><time>2014-6-22T0:33:4Z</time></trkpt>
<trkpt lat="46.99345000" lon="6.92715700"><ele></ele><time>2014-6-22T0:33:7Z</time></trkpt>
<trkpt lat="46.99339300" lon="6.92715400"><ele></ele><time>2014-6-22T0:33:10Z</time></trkpt>
<trkpt lat="46.99339300" lon="6.92715400"><ele></ele><time>2014-6-22T0:33:13Z</time></trkpt>
</trkseg></trk></gpx>